<?xml version="1.0" encoding="UTF-8"?>
<gpx version="1.1" creator="2bulu-scraper" xmlns="http://www.topografix.com/GPX/1/1">
  <metadata><name>昭通水富市铜锣坝徒步</name><desc>source: 2bulu.com trackId=83433129; exported 2026-09-01T18:32:29.826Z</desc>
    <bounds minlat="28.4087029" minlon="104.1266491" maxlat="28.4219655" maxlon="104.1442389"/>
    <link href="https://www.2bulu.com/track/t-JQmVzYyH0Urp%252FR2KBg5Tzw%253D%253D.htm"><text>2bulu 源页面</text></link>
  </metadata>
  <wpt lat="28.4157202" lon="104.1297725"><ele>1408</ele><name>
        </name></wpt>
  <wpt lat="28.4219653" lon="104.1333221"><ele>1558</ele><name>
        </name></wpt>
  <wpt lat="28.4216392" lon="104.1354865"><ele>1569</ele><name>
        </name></wpt>
  <wpt lat="28.4202721" lon="104.1361304"><ele>1529</ele><name>
        </name></wpt>
  <wpt lat="28.4198655" lon="104.1374382"><ele>1491</ele><name>
        </name></wpt>
  <wpt lat="28.419866" lon="104.1379696"><ele>1470</ele><name>
        </name></wpt>
  <wpt lat="28.4198871" lon="104.1387043"><ele>1457</ele><name>
        </name></wpt>
  <wpt lat="28.4124155" lon="104.1282776"><ele>1408</ele><name>
        </name></wpt>
  <wpt lat="28.413876" lon="104.1377817"><ele>1437</ele><name>
        </name></wpt>
  <wpt lat="28.4099427" lon="104.1409641"><ele>1444</ele><name>
        </name></wpt>
  <wpt lat="28.4096614" lon="104.1419529"><ele>1442</ele><name>
        </name></wpt>
  <wpt lat="28.4098182" lon="104.1420641"><ele>1439</ele><name>
        </name></wpt>
  <wpt lat="28.4090425" lon="104.1420683"><ele>1451</ele><name>
        </name></wpt>
  <wpt lat="28.4088615" lon="104.1421343"><ele>1457</ele><name>
        </name></wpt>
  <wpt lat="28.4087029" lon="104.1423023"><ele>1460</ele><name>
        </name></wpt>
  <wpt lat="28.4088303" lon="104.1426578"><ele>1447</ele><name>
        </name></wpt>
  <wpt lat="28.4088434" lon="104.1427625"><ele>1442</ele><name>
        </name></wpt>
  <wpt lat="28.4148395" lon="104.1388708"><ele>1479</ele><name>
        </name></wpt>
  <wpt lat="28.4149933" lon="104.1386011"><ele>1476</ele><name>
        </name></wpt>
  <wpt lat="28.4159443" lon="104.1370352"><ele>1439</ele><name>
        </name></wpt>
  <wpt lat="28.4167515" lon="104.1329566"><ele>1440</ele><name>
        </name></wpt>
  <trk><name>昭通水富市铜锣坝徒步</name>
      <trkseg>
        <trkpt lat="28.4158238" lon="104.1269725"><ele>1421.11</ele><time>2026-05-01T18:18:39.000Z</time></trkpt>
        <trkpt lat="28.4157446" lon="104.1269519"><ele>1421.11</ele><time>2026-05-01T18:19:20.000Z</time></trkpt>
        <trkpt lat="28.4156453" lon="104.1269144"><ele>1421.55</ele><time>2026-05-01T18:19:28.000Z</time></trkpt>
        <trkpt lat="28.4155464" lon="104.1268731"><ele>1421.56</ele><time>2026-05-01T18:19:36.000Z</time></trkpt>
        <trkpt lat="28.4154495" lon="104.1268419"><ele>1421.61</ele><time>2026-05-01T18:19:46.000Z</time></trkpt>
        <trkpt lat="28.4153982" lon="104.1268536"><ele>1421.38</ele><time>2026-05-01T18:19:52.000Z</time></trkpt>
        <trkpt lat="28.4153982" lon="104.1268536"><ele>1421.38</ele><time>2026-05-01T18:19:52.000Z</time></trkpt>
        <trkpt lat="28.4155978" lon="104.1270118"><ele>1432.41</ele><time>2026-05-01T18:21:20.000Z</time></trkpt>
        <trkpt lat="28.4156391" lon="104.1269852"><ele>1418.26</ele><time>2026-05-01T18:21:27.000Z</time></trkpt>
        <trkpt lat="28.4155419" lon="104.1269259"><ele>1418.26</ele><time>2026-05-01T18:22:58.000Z</time></trkpt>
        <trkpt lat="28.4154661" lon="104.1269221"><ele>1416.82</ele><time>2026-05-01T18:23:04.000Z</time></trkpt>
        <trkpt lat="28.4155641" lon="104.126964"><ele>1418.94</ele><time>2026-05-01T18:26:00.000Z</time></trkpt>
        <trkpt lat="28.4156194" lon="104.1270488"><ele>1419.78</ele><time>2026-05-01T18:26:10.000Z</time></trkpt>
        <trkpt lat="28.4157151" lon="104.1270779"><ele>1421.13</ele><time>2026-05-01T18:26:22.000Z</time></trkpt>
        <trkpt lat="28.4158095" lon="104.1271147"><ele>1420.9</ele><time>2026-05-01T18:26:32.000Z</time></trkpt>
        <trkpt lat="28.4158908" lon="104.1271783"><ele>1420.71</ele><time>2026-05-01T18:26:44.000Z</time></trkpt>
        <trkpt lat="28.4159785" lon="104.1272074"><ele>1421.3</ele><time>2026-05-01T18:27:00.000Z</time></trkpt>
        <trkpt lat="28.4160154" lon="104.1272927"><ele>1421.17</ele><time>2026-05-01T18:27:50.000Z</time></trkpt>
        <trkpt lat="28.4160676" lon="104.1273836"><ele>1420.38</ele><time>2026-05-01T18:28:04.000Z</time></trkpt>
        <trkpt lat="28.416113" lon="104.1274808"><ele>1418.72</ele><time>2026-05-01T18:28:14.000Z</time></trkpt>
        <trkpt lat="28.4161612" lon="104.1275776"><ele>1417.68</ele><time>2026-05-01T18:28:30.000Z</time></trkpt>
        <trkpt lat="28.416217" lon="104.1276642"><ele>1417.73</ele><time>2026-05-01T18:28:42.000Z</time></trkpt>
        <trkpt lat="28.4162168" lon="104.1277619"><ele>1417.4</ele><time>2026-05-01T18:28:56.000Z</time></trkpt>
        <trkpt lat="28.416173" lon="104.1278599"><ele>1416.55</ele><time>2026-05-01T18:29:10.000Z</time></trkpt>
        <trkpt lat="28.416091" lon="104.1279135"><ele>1415.78</ele><time>2026-05-01T18:29:40.000Z</time></trkpt>
        <trkpt lat="28.4160056" lon="104.127976"><ele>1415.93</ele><time>2026-05-01T18:29:56.000Z</time></trkpt>
        <trkpt lat="28.4159222" lon="104.1280451"><ele>1415.69</ele><time>2026-05-01T18:30:10.000Z</time></trkpt>
        <trkpt lat="28.4158676" lon="104.1281398"><ele>1415.12</ele><time>2026-05-01T18:30:22.000Z</time></trkpt>
        <trkpt lat="28.4158117" lon="104.1282269"><ele>1413.85</ele><time>2026-05-01T18:30:32.000Z</time></trkpt>
        <trkpt lat="28.4157387" lon="104.1283019"><ele>1412.51</ele><time>2026-05-01T18:30:44.000Z</time></trkpt>
        <trkpt lat="28.4156517" lon="104.1283475"><ele>1411.86</ele><time>2026-05-01T18:30:56.000Z</time></trkpt>
        <trkpt lat="28.4155569" lon="104.128364"><ele>1411.32</ele><time>2026-05-01T18:31:06.000Z</time></trkpt>
        <trkpt lat="28.4154558" lon="104.1283711"><ele>1412.01</ele><time>2026-05-01T18:31:16.000Z</time></trkpt>
        <trkpt lat="28.4153729" lon="104.1284323"><ele>1411.9</ele><time>2026-05-01T18:31:28.000Z</time></trkpt>
        <trkpt lat="28.415303" lon="104.1285061"><ele>1411.17</ele><time>2026-05-01T18:31:38.000Z</time></trkpt>
        <trkpt lat="28.4152454" lon="104.1285928"><ele>1410</ele><time>2026-05-01T18:31:48.000Z</time></trkpt>
        <trkpt lat="28.4152536" lon="104.1287077"><ele>1408.29</ele><time>2026-05-01T18:32:02.000Z</time></trkpt>
        <trkpt lat="28.4152649" lon="104.1288205"><ele>1406.45</ele><time>2026-05-01T18:32:12.000Z</time></trkpt>
        <trkpt lat="28.4152714" lon="104.1289349"><ele>1405.83</ele><time>2026-05-01T18:32:24.000Z</time></trkpt>
        <trkpt lat="28.4152453" lon="104.1290389"><ele>1405.99</ele><time>2026-05-01T18:32:34.000Z</time></trkpt>
        <trkpt lat="28.4152346" lon="104.129152"><ele>1406.25</ele><time>2026-05-01T18:32:46.000Z</time></trkpt>
        <trkpt lat="28.4152387" lon="104.1292632"><ele>1406.87</ele><time>2026-05-01T18:32:56.000Z</time></trkpt>
        <trkpt lat="28.4152631" lon="104.1293654"><ele>1407.72</ele><time>2026-05-01T18:33:06.000Z</time></trkpt>
        <trkpt lat="28.4153295" lon="104.129446"><ele>1407.87</ele><time>2026-05-01T18:33:16.000Z</time></trkpt>
        <trkpt lat="28.4154328" lon="104.1294683"><ele>1407.92</ele><time>2026-05-01T18:33:26.000Z</time></trkpt>
        <trkpt lat="28.4155376" lon="104.1294965"><ele>1407.72</ele><time>2026-05-01T18:33:38.000Z</time></trkpt>
        <trkpt lat="28.4155376" lon="104.1294965"><ele>1407.72</ele><time>2026-05-01T18:33:38.000Z</time></trkpt>
        <trkpt lat="28.415659" lon="104.1296772"><ele>1408</ele><time>2026-05-01T18:33:51.000Z</time></trkpt>
        <trkpt lat="28.415659" lon="104.1296772"><ele>1408</ele><time>2026-05-01T18:34:00.000Z</time></trkpt>
        <trkpt lat="28.4157202" lon="104.1297725"><ele>1408</ele><time>2026-05-01T18:34:12.000Z</time></trkpt>
        <trkpt lat="28.415814" lon="104.1297986"><ele>1407.87</ele><time>2026-05-01T18:34:30.000Z</time></trkpt>
        <trkpt lat="28.4159163" lon="104.1297982"><ele>1407.32</ele><time>2026-05-01T18:34:40.000Z</time></trkpt>
        <trkpt lat="28.4160121" lon="104.1298473"><ele>1407.5</ele><time>2026-05-01T18:34:56.000Z</time></trkpt>
        <trkpt lat="28.4161038" lon="104.1298733"><ele>1407.55</ele><time>2026-05-01T18:35:06.000Z</time></trkpt>
        <trkpt lat="28.4162045" lon="104.1298798"><ele>1407.64</ele><time>2026-05-01T18:35:18.000Z</time></trkpt>
        <trkpt lat="28.4162686" lon="104.1299436"><ele>1408.42</ele><time>2026-05-01T18:35:28.000Z</time></trkpt>
        <trkpt lat="28.4163293" lon="104.130029"><ele>1408.28</ele><time>2026-05-01T18:35:38.000Z</time></trkpt>
        <trkpt lat="28.4163969" lon="104.1301051"><ele>1407.85</ele><time>2026-05-01T18:35:48.000Z</time></trkpt>
        <trkpt lat="28.4164227" lon="104.1302103"><ele>1407.79</ele><time>2026-05-01T18:35:58.000Z</time></trkpt>
        <trkpt lat="28.416459" lon="104.130308"><ele>1407.85</ele><time>2026-05-01T18:36:10.000Z</time></trkpt>
        <trkpt lat="28.4165167" lon="104.1303902"><ele>1407.53</ele><time>2026-05-01T18:36:20.000Z</time></trkpt>
        <trkpt lat="28.4165735" lon="104.1304837"><ele>1407.14</ele><time>2026-05-01T18:36:32.000Z</time></trkpt>
        <trkpt lat="28.4166092" lon="104.130587"><ele>1407.31</ele><time>2026-05-01T18:36:56.000Z</time></trkpt>
        <trkpt lat="28.41666" lon="104.1306794"><ele>1407.03</ele><time>2026-05-01T18:37:14.000Z</time></trkpt>
        <trkpt lat="28.41666" lon="104.1306794"><ele>1407.03</ele><time>2026-05-01T18:37:14.000Z</time></trkpt>
        <trkpt lat="28.4166754" lon="104.1307017"><ele>1420.51</ele><time>2026-05-01T18:38:26.000Z</time></trkpt>
        <trkpt lat="28.4167438" lon="104.1307763"><ele>1408.44</ele><time>2026-05-01T18:38:28.000Z</time></trkpt>
        <trkpt lat="28.4168344" lon="104.1307903"><ele>1408.44</ele><time>2026-05-01T18:38:40.000Z</time></trkpt>
        <trkpt lat="28.4168344" lon="104.1307903"><ele>1408.44</ele><time>2026-05-01T18:38:40.000Z</time></trkpt>
        <trkpt lat="28.4169247" lon="104.1308348"><ele>1407.68</ele><time>2026-05-01T18:38:58.000Z</time></trkpt>
        <trkpt lat="28.4169247" lon="104.1308348"><ele>1407.68</ele><time>2026-05-01T18:39:02.000Z</time></trkpt>
        <trkpt lat="28.4169247" lon="104.1308348"><ele>1407.68</ele><time>2026-05-01T18:39:02.000Z</time></trkpt>
        <trkpt lat="28.4169673" lon="104.1309388"><ele>1408.47</ele><time>2026-05-01T18:39:14.000Z</time></trkpt>
        <trkpt lat="28.4170354" lon="104.13102"><ele>1408.25</ele><time>2026-05-01T18:39:26.000Z</time></trkpt>
        <trkpt lat="28.417097" lon="104.1310943"><ele>1410.39</ele><time>2026-05-01T18:39:39.000Z</time></trkpt>
        <trkpt lat="28.4171677" lon="104.1311596"><ele>1411.71</ele><time>2026-05-01T18:40:04.000Z</time></trkpt>
        <trkpt lat="28.4173069" lon="104.1312678"><ele>1416.3</ele><time>2026-05-01T18:41:15.000Z</time></trkpt>
        <trkpt lat="28.4173778" lon="104.131336"><ele>1423.38</ele><time>2026-05-01T18:41:43.000Z</time></trkpt>
        <trkpt lat="28.4173778" lon="104.131336"><ele>1423.38</ele><time>2026-05-01T18:41:43.000Z</time></trkpt>
        <trkpt lat="28.4175637" lon="104.1315115"><ele>1434.95</ele><time>2026-05-01T18:42:52.000Z</time></trkpt>
        <trkpt lat="28.4175637" lon="104.1315115"><ele>1434.95</ele><time>2026-05-01T18:42:55.000Z</time></trkpt>
        <trkpt lat="28.4175637" lon="104.1315115"><ele>1434.95</ele><time>2026-05-01T18:42:55.000Z</time></trkpt>
        <trkpt lat="28.4175927" lon="104.1315354"><ele>1438.58</ele><time>2026-05-01T18:44:15.000Z</time></trkpt>
        <trkpt lat="28.4176656" lon="104.1314646"><ele>1434.81</ele><time>2026-05-01T18:44:45.000Z</time></trkpt>
        <trkpt lat="28.4177279" lon="104.1313751"><ele>1435.05</ele><time>2026-05-01T18:44:59.000Z</time></trkpt>
        <trkpt lat="28.4178012" lon="104.131294"><ele>1434.05</ele><time>2026-05-01T18:45:09.000Z</time></trkpt>
        <trkpt lat="28.4178554" lon="104.131204"><ele>1437.15</ele><time>2026-05-01T18:45:31.000Z</time></trkpt>
        <trkpt lat="28.417858" lon="104.1312047"><ele>1437.15</ele><time>2026-05-01T18:45:31.000Z</time></trkpt>
        <trkpt lat="28.4179144" lon="104.1311059"><ele>1437.15</ele><time>2026-05-01T18:45:39.000Z</time></trkpt>
        <trkpt lat="28.4179822" lon="104.1310287"><ele>1436.48</ele><time>2026-05-01T18:45:49.000Z</time></trkpt>
        <trkpt lat="28.4180551" lon="104.1309632"><ele>1436.4</ele><time>2026-05-01T18:45:58.000Z</time></trkpt>
        <trkpt lat="28.4181244" lon="104.1308889"><ele>1436.7</ele><time>2026-05-01T18:46:10.000Z</time></trkpt>
        <trkpt lat="28.4181853" lon="104.1308248"><ele>1436.76</ele><time>2026-05-01T18:46:20.000Z</time></trkpt>
        <trkpt lat="28.4182493" lon="104.1307546"><ele>1437.16</ele><time>2026-05-01T18:46:58.000Z</time></trkpt>
        <trkpt lat="28.4183278" lon="104.130701"><ele>1437.46</ele><time>2026-05-01T18:47:16.000Z</time></trkpt>
        <trkpt lat="28.4183278" lon="104.130701"><ele>1437.46</ele><time>2026-05-01T18:47:16.000Z</time></trkpt>
        <trkpt lat="28.4183221" lon="104.131019"><ele>1450.45</ele><time>2026-05-01T18:48:35.000Z</time></trkpt>
        <trkpt lat="28.4183239" lon="104.1311214"><ele>1455.74</ele><time>2026-05-01T18:48:53.000Z</time></trkpt>
        <trkpt lat="28.4184012" lon="104.1311458"><ele>1455.74</ele><time>2026-05-01T18:49:07.000Z</time></trkpt>
        <trkpt lat="28.4184886" lon="104.131175"><ele>1456.12</ele><time>2026-05-01T18:49:31.000Z</time></trkpt>
        <trkpt lat="28.4184886" lon="104.131175"><ele>1456.12</ele><time>2026-05-01T18:49:31.000Z</time></trkpt>
        <trkpt lat="28.4188425" lon="104.1312587"><ele>1468.03</ele><time>2026-05-01T18:50:56.000Z</time></trkpt>
        <trkpt lat="28.4189161" lon="104.1313312"><ele>1469.23</ele><time>2026-05-01T18:51:20.000Z</time></trkpt>
        <trkpt lat="28.4190072" lon="104.1313702"><ele>1470.14</ele><time>2026-05-01T18:51:38.000Z</time></trkpt>
        <trkpt lat="28.4190978" lon="104.1314096"><ele>1469.84</ele><time>2026-05-01T18:52:19.000Z</time></trkpt>
        <trkpt lat="28.4191756" lon="104.1314765"><ele>1473.7</ele><time>2026-05-01T18:52:28.000Z</time></trkpt>
        <trkpt lat="28.4192668" lon="104.1315048"><ele>1475.94</ele><time>2026-05-01T18:52:56.000Z</time></trkpt>
        <trkpt lat="28.4193572" lon="104.1315216"><ele>1479</ele><time>2026-05-01T18:53:13.000Z</time></trkpt>
        <trkpt lat="28.4194502" lon="104.1315609"><ele>1482.96</ele><time>2026-05-01T18:53:39.000Z</time></trkpt>
        <trkpt lat="28.4195188" lon="104.1316317"><ele>1486.1</ele><time>2026-05-01T18:53:55.000Z</time></trkpt>
        <trkpt lat="28.4196069" lon="104.1316574"><ele>1486.59</ele><time>2026-05-01T18:54:14.000Z</time></trkpt>
        <trkpt lat="28.4196069" lon="104.1316601"><ele>1486.59</ele><time>2026-05-01T18:54:14.000Z</time></trkpt>
        <trkpt lat="28.4196886" lon="104.1317097"><ele>1486.59</ele><time>2026-05-01T18:54:29.000Z</time></trkpt>
        <trkpt lat="28.4197615" lon="104.1317893"><ele>1487.05</ele><time>2026-05-01T18:54:45.000Z</time></trkpt>
        <trkpt lat="28.419845" lon="104.1318498"><ele>1486.36</ele><time>2026-05-01T18:55:14.000Z</time></trkpt>
        <trkpt lat="28.4199017" lon="104.1319304"><ele>1488.39</ele><time>2026-05-01T18:55:29.000Z</time></trkpt>
        <trkpt lat="28.4199017" lon="104.1319304"><ele>1488.39</ele><time>2026-05-01T18:55:29.000Z</time></trkpt>
        <trkpt lat="28.4201457" lon="104.1321347"><ele>1493.38</ele><time>2026-05-01T18:56:34.000Z</time></trkpt>
        <trkpt lat="28.4201308" lon="104.1322433"><ele>1502.76</ele><time>2026-05-01T18:57:03.000Z</time></trkpt>
        <trkpt lat="28.420153" lon="104.132342"><ele>1508</ele><time>2026-05-01T18:57:38.000Z</time></trkpt>
        <trkpt lat="28.4202018" lon="104.1324329"><ele>1508</ele><time>2026-05-01T18:58:04.000Z</time></trkpt>
        <trkpt lat="28.420272" lon="104.1325025"><ele>1508.14</ele><time>2026-05-01T18:58:23.000Z</time></trkpt>
        <trkpt lat="28.4203602" lon="104.1325465"><ele>1508.76</ele><time>2026-05-01T18:58:45.000Z</time></trkpt>
        <trkpt lat="28.4204523" lon="104.132507"><ele>1509.67</ele><time>2026-05-01T18:58:57.000Z</time></trkpt>
        <trkpt lat="28.4204523" lon="104.132507"><ele>1509.67</ele><time>2026-05-01T18:58:57.000Z</time></trkpt>
        <trkpt lat="28.4208492" lon="104.1323745"><ele>1522.76</ele><time>2026-05-01T19:00:31.000Z</time></trkpt>
        <trkpt lat="28.4208492" lon="104.1323745"><ele>1522.76</ele><time>2026-05-01T19:00:31.000Z</time></trkpt>
        <trkpt lat="28.4213546" lon="104.1322902"><ele>1535.64</ele><time>2026-05-01T19:04:19.000Z</time></trkpt>
        <trkpt lat="28.4213546" lon="104.1322902"><ele>1535.64</ele><time>2026-05-01T19:04:29.000Z</time></trkpt>
        <trkpt lat="28.4213546" lon="104.1322902"><ele>1535.64</ele><time>2026-05-01T19:04:29.000Z</time></trkpt>
        <trkpt lat="28.4213565" lon="104.1321819"><ele>1544.35</ele><time>2026-05-01T19:04:32.000Z</time></trkpt>
        <trkpt lat="28.4214552" lon="104.1321985"><ele>1549.79</ele><time>2026-05-01T19:04:51.000Z</time></trkpt>
        <trkpt lat="28.4215443" lon="104.132249"><ele>1551.67</ele><time>2026-05-01T19:06:00.000Z</time></trkpt>
        <trkpt lat="28.421602" lon="104.1323303"><ele>1551.67</ele><time>2026-05-01T19:06:14.000Z</time></trkpt>
        <trkpt lat="28.4216636" lon="104.1324101"><ele>1551.13</ele><time>2026-05-01T19:06:32.000Z</time></trkpt>
        <trkpt lat="28.4217239" lon="104.1324995"><ele>1551.23</ele><time>2026-05-01T19:06:50.000Z</time></trkpt>
        <trkpt lat="28.4217625" lon="104.1325987"><ele>1552.29</ele><time>2026-05-01T19:07:02.000Z</time></trkpt>
        <trkpt lat="28.4218061" lon="104.1326974"><ele>1553.06</ele><time>2026-05-01T19:07:16.000Z</time></trkpt>
        <trkpt lat="28.4218362" lon="104.1328046"><ele>1553.18</ele><time>2026-05-01T19:07:30.000Z</time></trkpt>
        <trkpt lat="28.421886" lon="104.1328987"><ele>1554.19</ele><time>2026-05-01T19:07:50.000Z</time></trkpt>
        <trkpt lat="28.421932" lon="104.1329938"><ele>1554.27</ele><time>2026-05-01T19:08:06.000Z</time></trkpt>
        <trkpt lat="28.4219568" lon="104.1331025"><ele>1554.87</ele><time>2026-05-01T19:08:22.000Z</time></trkpt>
        <trkpt lat="28.4219568" lon="104.1332164"><ele>1555.83</ele><time>2026-05-01T19:08:38.000Z</time></trkpt>
        <trkpt lat="28.4219653" lon="104.1333221"><ele>1556.24</ele><time>2026-05-01T19:08:52.000Z</time></trkpt>
        <trkpt lat="28.4219291" lon="104.1334183"><ele>1557.08</ele><time>2026-05-01T19:09:24.000Z</time></trkpt>
        <trkpt lat="28.4219291" lon="104.1334183"><ele>1557.08</ele><time>2026-05-01T19:09:24.000Z</time></trkpt>
        <trkpt lat="28.4218959" lon="104.1339587"><ele>1559.18</ele><time>2026-05-01T19:12:02.000Z</time></trkpt>
        <trkpt lat="28.4218959" lon="104.1339587"><ele>1559.18</ele><time>2026-05-01T19:11:36.000Z</time></trkpt>
        <trkpt lat="28.421935" lon="104.134061"><ele>1555.56</ele><time>2026-05-01T19:11:50.000Z</time></trkpt>
        <trkpt lat="28.4219299" lon="104.1340637"><ele>1559.18</ele><time>2026-05-01T19:11:50.000Z</time></trkpt>
        <trkpt lat="28.4219655" lon="104.1341602"><ele>1557.62</ele><time>2026-05-01T19:12:10.000Z</time></trkpt>
        <trkpt lat="28.421956" lon="104.1342611"><ele>1555.58</ele><time>2026-05-01T19:12:25.000Z</time></trkpt>
        <trkpt lat="28.421956" lon="104.1342611"><ele>1555.58</ele><time>2026-05-01T19:12:25.000Z</time></trkpt>
        <trkpt lat="28.4217686" lon="104.1343896"><ele>1553.29</ele><time>2026-05-01T19:13:06.000Z</time></trkpt>
        <trkpt lat="28.4217961" lon="104.1344921"><ele>1543.26</ele><time>2026-05-01T19:13:08.000Z</time></trkpt>
        <trkpt lat="28.4217887" lon="104.134599"><ele>1543.26</ele><time>2026-05-01T19:13:44.000Z</time></trkpt>
        <trkpt lat="28.4217871" lon="104.1346284"><ele>1548.44</ele><time>2026-05-01T19:13:46.000Z</time></trkpt>
        <trkpt lat="28.4217824" lon="104.1347127"><ele>1551.36</ele><time>2026-05-01T19:14:02.000Z</time></trkpt>
        <trkpt lat="28.4217918" lon="104.134814"><ele>1554.38</ele><time>2026-05-01T19:14:20.000Z</time></trkpt>
        <trkpt lat="28.4218184" lon="104.1349238"><ele>1556.03</ele><time>2026-05-01T19:14:34.000Z</time></trkpt>
        <trkpt lat="28.4218406" lon="104.1350343"><ele>1557.88</ele><time>2026-05-01T19:14:52.000Z</time></trkpt>
        <trkpt lat="28.4218363" lon="104.1351392"><ele>1559.76</ele><time>2026-05-01T19:15:08.000Z</time></trkpt>
        <trkpt lat="28.4218129" lon="104.1352438"><ele>1560.69</ele><time>2026-05-01T19:15:24.000Z</time></trkpt>
        <trkpt lat="28.4217691" lon="104.1353495"><ele>1561.85</ele><time>2026-05-01T19:15:38.000Z</time></trkpt>
        <trkpt lat="28.4217167" lon="104.1354444"><ele>1561.98</ele><time>2026-05-01T19:15:54.000Z</time></trkpt>
        <trkpt lat="28.4217499" lon="104.1355207"><ele>1562.71</ele><time>2026-05-01T19:16:10.000Z</time></trkpt>
        <trkpt lat="28.4217499" lon="104.1355207"><ele>1562.71</ele><time>2026-05-01T19:16:10.000Z</time></trkpt>
        <trkpt lat="28.4218666" lon="104.1355533"><ele>1566.88</ele><time>2026-05-01T19:21:27.000Z</time></trkpt>
        <trkpt lat="28.4218666" lon="104.1355533"><ele>1566.88</ele><time>2026-05-01T19:27:19.000Z</time></trkpt>
        <trkpt lat="28.4217825" lon="104.1355047"><ele>1566.88</ele><time>2026-05-01T19:28:09.000Z</time></trkpt>
        <trkpt lat="28.4218523" lon="104.135436"><ele>1567</ele><time>2026-05-01T19:29:11.000Z</time></trkpt>
        <trkpt lat="28.4217912" lon="104.1355131"><ele>1561.9</ele><time>2026-05-01T19:29:43.000Z</time></trkpt>
        <trkpt lat="28.4218839" lon="104.135481"><ele>1562.58</ele><time>2026-05-01T19:54:43.000Z</time></trkpt>
        <trkpt lat="28.4217935" lon="104.1354649"><ele>1561.82</ele><time>2026-05-01T19:54:53.000Z</time></trkpt>
        <trkpt lat="28.421852" lon="104.1353871"><ele>1562.97</ele><time>2026-05-01T19:56:15.000Z</time></trkpt>
        <trkpt lat="28.4219203" lon="104.1354796"><ele>1570.15</ele><time>2026-05-01T19:56:29.000Z</time></trkpt>
        <trkpt lat="28.4218598" lon="104.1355406"><ele>1574.21</ele><time>2026-05-01T19:56:47.000Z</time></trkpt>
        <trkpt lat="28.4219075" lon="104.1355289"><ele>1580.47</ele><time>2026-05-01T19:57:29.000Z</time></trkpt>
        <trkpt lat="28.4218601" lon="104.1354807"><ele>1582.94</ele><time>2026-05-01T19:57:45.000Z</time></trkpt>
        <trkpt lat="28.4218467" lon="104.1355425"><ele>1586.87</ele><time>2026-05-01T19:58:01.000Z</time></trkpt>
        <trkpt lat="28.421855" lon="104.1354807"><ele>1589.95</ele><time>2026-05-01T19:58:15.000Z</time></trkpt>
        <trkpt lat="28.4218126" lon="104.1355366"><ele>1593.13</ele><time>2026-05-01T19:59:14.000Z</time></trkpt>
        <trkpt lat="28.4217864" lon="104.1355643"><ele>1597.26</ele><time>2026-05-01T19:59:20.000Z</time></trkpt>
        <trkpt lat="28.4218106" lon="104.1354539"><ele>1600.34</ele><time>2026-05-01T20:00:58.000Z</time></trkpt>
        <trkpt lat="28.4218215" lon="104.1354062"><ele>1602.78</ele><time>2026-05-01T20:01:06.000Z</time></trkpt>
        <trkpt lat="28.4218215" lon="104.1354062"><ele>1602.78</ele><time>2026-05-01T20:01:06.000Z</time></trkpt>
        <trkpt lat="28.4217894" lon="104.1354417"><ele>1607.36</ele><time>2026-05-01T20:04:38.000Z</time></trkpt>
        <trkpt lat="28.4219107" lon="104.1355143"><ele>1592.12</ele><time>2026-05-01T20:07:20.000Z</time></trkpt>
        <trkpt lat="28.4218199" lon="104.1354596"><ele>1592.12</ele><time>2026-05-01T20:07:26.000Z</time></trkpt>
        <trkpt lat="28.4218838" lon="104.1354375"><ele>1591.73</ele><time>2026-05-01T20:07:42.000Z</time></trkpt>
        <trkpt lat="28.4218351" lon="104.1354044"><ele>1593.11</ele><time>2026-05-01T20:07:56.000Z</time></trkpt>
        <trkpt lat="28.4218464" lon="104.1354801"><ele>1589.99</ele><time>2026-05-01T20:08:08.000Z</time></trkpt>
        <trkpt lat="28.4218623" lon="104.1355235"><ele>1586.79</ele><time>2026-05-01T20:08:16.000Z</time></trkpt>
        <trkpt lat="28.4218363" lon="104.1354692"><ele>1583.11</ele><time>2026-05-01T20:08:34.000Z</time></trkpt>
        <trkpt lat="28.4217557" lon="104.1354528"><ele>1570.72</ele><time>2026-05-01T20:08:52.000Z</time></trkpt>
        <trkpt lat="28.4216392" lon="104.1354865"><ele>1568.71</ele><time>2026-05-01T20:11:28.000Z</time></trkpt>
        <trkpt lat="28.4215464" lon="104.1354655"><ele>1568.81</ele><time>2026-05-01T20:12:58.000Z</time></trkpt>
        <trkpt lat="28.4214682" lon="104.1355201"><ele>1566.73</ele><time>2026-05-01T20:13:36.000Z</time></trkpt>
        <trkpt lat="28.42139" lon="104.1355761"><ele>1563.14</ele><time>2026-05-01T20:13:58.000Z</time></trkpt>
        <trkpt lat="28.4213162" lon="104.1356397"><ele>1559.2</ele><time>2026-05-01T20:14:26.000Z</time></trkpt>
        <trkpt lat="28.4212305" lon="104.135679"><ele>1554.91</ele><time>2026-05-01T20:14:50.000Z</time></trkpt>
        <trkpt lat="28.4211371" lon="104.1356958"><ele>1552.83</ele><time>2026-05-01T20:15:10.000Z</time></trkpt>
        <trkpt lat="28.4210463" lon="104.135716"><ele>1549.99</ele><time>2026-05-01T20:15:34.000Z</time></trkpt>
        <trkpt lat="28.4209502" lon="104.1357349"><ele>1548.26</ele><time>2026-05-01T20:15:50.000Z</time></trkpt>
        <trkpt lat="28.4208478" lon="104.1357345"><ele>1545.97</ele><time>2026-05-01T20:16:02.000Z</time></trkpt>
        <trkpt lat="28.4207554" lon="104.1357672"><ele>1544.16</ele><time>2026-05-01T20:16:14.000Z</time></trkpt>
        <trkpt lat="28.420666" lon="104.1358097"><ele>1541.98</ele><time>2026-05-01T20:16:38.000Z</time></trkpt>
        <trkpt lat="28.4205762" lon="104.1358508"><ele>1539.78</ele><time>2026-05-01T20:16:50.000Z</time></trkpt>
        <trkpt lat="28.4204903" lon="104.1359076"><ele>1538.48</ele><time>2026-05-01T20:17:08.000Z</time></trkpt>
        <trkpt lat="28.4204226" lon="104.1359861"><ele>1537.02</ele><time>2026-05-01T20:17:26.000Z</time></trkpt>
        <trkpt lat="28.4203511" lon="104.1360557"><ele>1534.85</ele><time>2026-05-01T20:17:42.000Z</time></trkpt>
        <trkpt lat="28.4202721" lon="104.1361304"><ele>1534.12</ele><time>2026-05-01T20:17:58.000Z</time></trkpt>
        <trkpt lat="28.4201827" lon="104.1361951"><ele>1531.83</ele><time>2026-05-01T20:18:12.000Z</time></trkpt>
        <trkpt lat="28.4200907" lon="104.1362376"><ele>1530.5</ele><time>2026-05-01T20:19:02.000Z</time></trkpt>
        <trkpt lat="28.4199997" lon="104.1362544"><ele>1530.82</ele><time>2026-05-01T20:19:26.000Z</time></trkpt>
        <trkpt lat="28.4199085" lon="104.136264"><ele>1531.27</ele><time>2026-05-01T20:19:48.000Z</time></trkpt>
        <trkpt lat="28.4198267" lon="104.1363133"><ele>1531.16</ele><time>2026-05-01T20:20:06.000Z</time></trkpt>
        <trkpt lat="28.4198267" lon="104.1364056"><ele>1528.24</ele><time>2026-05-01T20:20:32.000Z</time></trkpt>
        <trkpt lat="28.4198728" lon="104.1365049"><ele>1523.35</ele><time>2026-05-01T20:21:02.000Z</time></trkpt>
        <trkpt lat="28.4198728" lon="104.1365049"><ele>1523.35</ele><time>2026-05-01T20:21:02.000Z</time></trkpt>
        <trkpt lat="28.4199565" lon="104.1372242"><ele>1466.74</ele><time>2026-05-01T20:25:15.000Z</time></trkpt>
        <trkpt lat="28.4199565" lon="104.1372242"><ele>1466.74</ele><time>2026-05-01T20:25:18.000Z</time></trkpt>
        <trkpt lat="28.4198898" lon="104.1373309"><ele>1466.74</ele><time>2026-05-01T20:25:22.000Z</time></trkpt>
        <trkpt lat="28.4198655" lon="104.1374382"><ele>1472.34</ele><time>2026-05-01T20:25:36.000Z</time></trkpt>
        <trkpt lat="28.4198401" lon="104.1375503"><ele>1480.48</ele><time>2026-05-01T20:26:02.000Z</time></trkpt>
        <trkpt lat="28.4198046" lon="104.1376546"><ele>1483.02</ele><time>2026-05-01T20:26:24.000Z</time></trkpt>
        <trkpt lat="28.4198144" lon="104.1377602"><ele>1482.34</ele><time>2026-05-01T20:27:04.000Z</time></trkpt>
        <trkpt lat="28.4198568" lon="104.1378615"><ele>1479.39</ele><time>2026-05-01T20:27:34.000Z</time></trkpt>
        <trkpt lat="28.419866" lon="104.1379696"><ele>1475.12</ele><time>2026-05-01T20:27:46.000Z</time></trkpt>
        <trkpt lat="28.4198743" lon="104.138078"><ele>1473.03</ele><time>2026-05-01T20:28:30.000Z</time></trkpt>
        <trkpt lat="28.4198921" lon="104.1381878"><ele>1472.61</ele><time>2026-05-01T20:28:56.000Z</time></trkpt>
        <trkpt lat="28.419906" lon="104.1382932"><ele>1470.92</ele><time>2026-05-01T20:29:14.000Z</time></trkpt>
        <trkpt lat="28.4199103" lon="104.1383965"><ele>1467.61</ele><time>2026-05-01T20:29:38.000Z</time></trkpt>
        <trkpt lat="28.41992" lon="104.1385046"><ele>1464.93</ele><time>2026-05-01T20:30:06.000Z</time></trkpt>
        <trkpt lat="28.4198893" lon="104.1386027"><ele>1462.92</ele><time>2026-05-01T20:30:28.000Z</time></trkpt>
        <trkpt lat="28.4198871" lon="104.1387043"><ele>1459.98</ele><time>2026-05-01T20:30:46.000Z</time></trkpt>
        <trkpt lat="28.419909" lon="104.1388053"><ele>1458.54</ele><time>2026-05-01T20:31:08.000Z</time></trkpt>
        <trkpt lat="28.4198954" lon="104.1389043"><ele>1455.35</ele><time>2026-05-01T20:31:32.000Z</time></trkpt>
        <trkpt lat="28.4198657" lon="104.1390019"><ele>1453.22</ele><time>2026-05-01T20:31:56.000Z</time></trkpt>
        <trkpt lat="28.4198109" lon="104.1390843"><ele>1450.91</ele><time>2026-05-01T20:32:30.000Z</time></trkpt>
        <trkpt lat="28.4197416" lon="104.1389947"><ele>1448.4</ele><time>2026-05-01T20:34:18.000Z</time></trkpt>
        <trkpt lat="28.4197108" lon="104.1388944"><ele>1448.97</ele><time>2026-05-01T20:34:34.000Z</time></trkpt>
        <trkpt lat="28.4196226" lon="104.1389304"><ele>1448.1</ele><time>2026-05-01T20:37:26.000Z</time></trkpt>
        <trkpt lat="28.4195263" lon="104.1389533"><ele>1449.26</ele><time>2026-05-01T20:37:50.000Z</time></trkpt>
        <trkpt lat="28.4194388" lon="104.1389969"><ele>1447.06</ele><time>2026-05-01T20:38:02.000Z</time></trkpt>
        <trkpt lat="28.4194288" lon="104.1389206"><ele>1444.47</ele><time>2026-05-01T20:38:28.000Z</time></trkpt>
        <trkpt lat="28.4194262" lon="104.1388533"><ele>1441.3</ele><time>2026-05-01T20:38:32.000Z</time></trkpt>
        <trkpt lat="28.4194262" lon="104.1388533"><ele>1441.3</ele><time>2026-05-01T20:38:32.000Z</time></trkpt>
        <trkpt lat="28.4191602" lon="104.1383856"><ele>1440.65</ele><time>2026-05-01T20:39:08.000Z</time></trkpt>
        <trkpt lat="28.4191602" lon="104.1383856"><ele>1440.65</ele><time>2026-05-01T20:39:09.000Z</time></trkpt>
        <trkpt lat="28.4190766" lon="104.1383409"><ele>1440.65</ele><time>2026-05-01T20:39:13.000Z</time></trkpt>
        <trkpt lat="28.4189937" lon="104.1382925"><ele>1439.57</ele><time>2026-05-01T20:39:19.000Z</time></trkpt>
        <trkpt lat="28.4188968" lon="104.1382261"><ele>1438.2</ele><time>2026-05-01T20:39:26.000Z</time></trkpt>
        <trkpt lat="28.4188062" lon="104.1381659"><ele>1436.45</ele><time>2026-05-01T20:39:32.000Z</time></trkpt>
        <trkpt lat="28.4187164" lon="104.1381065"><ele>1435.51</ele><time>2026-05-01T20:39:38.000Z</time></trkpt>
        <trkpt lat="28.418631" lon="104.1380428"><ele>1435.02</ele><time>2026-05-01T20:39:44.000Z</time></trkpt>
        <trkpt lat="28.41855" lon="104.1379845"><ele>1434.46</ele><time>2026-05-01T20:39:50.000Z</time></trkpt>
        <trkpt lat="28.4184729" lon="104.1379223"><ele>1434.4</ele><time>2026-05-01T20:39:56.000Z</time></trkpt>
        <trkpt lat="28.4183812" lon="104.1378593"><ele>1434.15</ele><time>2026-05-01T20:40:02.000Z</time></trkpt>
        <trkpt lat="28.41829" lon="104.1378061"><ele>1433.76</ele><time>2026-05-01T20:40:08.000Z</time></trkpt>
        <trkpt lat="28.4181823" lon="104.1377538"><ele>1433.88</ele><time>2026-05-01T20:40:16.000Z</time></trkpt>
        <trkpt lat="28.4180727" lon="104.1377033"><ele>1433.95</ele><time>2026-05-01T20:40:23.000Z</time></trkpt>
        <trkpt lat="28.4179688" lon="104.1376595"><ele>1434.27</ele><time>2026-05-01T20:40:29.000Z</time></trkpt>
        <trkpt lat="28.417873" lon="104.1376175"><ele>1434.43</ele><time>2026-05-01T20:40:35.000Z</time></trkpt>
        <trkpt lat="28.4177791" lon="104.1375749"><ele>1434.47</ele><time>2026-05-01T20:40:41.000Z</time></trkpt>
        <trkpt lat="28.4176831" lon="104.13754"><ele>1434.43</ele><time>2026-05-01T20:40:47.000Z</time></trkpt>
        <trkpt lat="28.4175846" lon="104.1375109"><ele>1434.35</ele><time>2026-05-01T20:40:53.000Z</time></trkpt>
        <trkpt lat="28.4174849" lon="104.137482"><ele>1434.18</ele><time>2026-05-01T20:40:59.000Z</time></trkpt>
        <trkpt lat="28.4173881" lon="104.1374522"><ele>1434.15</ele><time>2026-05-01T20:41:05.000Z</time></trkpt>
        <trkpt lat="28.4172966" lon="104.1374257"><ele>1434.18</ele><time>2026-05-01T20:41:11.000Z</time></trkpt>
        <trkpt lat="28.4172026" lon="104.1373963"><ele>1433.82</ele><time>2026-05-01T20:41:17.000Z</time></trkpt>
        <trkpt lat="28.4171096" lon="104.1373628"><ele>1433.43</ele><time>2026-05-01T20:41:23.000Z</time></trkpt>
        <trkpt lat="28.4170189" lon="104.1373255"><ele>1433.61</ele><time>2026-05-01T20:41:29.000Z</time></trkpt>
        <trkpt lat="28.4169186" lon="104.1372722"><ele>1433.87</ele><time>2026-05-01T20:41:37.000Z</time></trkpt>
        <trkpt lat="28.4168474" lon="104.1371908"><ele>1433.79</ele><time>2026-05-01T20:41:45.000Z</time></trkpt>
        <trkpt lat="28.4167845" lon="104.1370959"><ele>1434.09</ele><time>2026-05-01T20:41:53.000Z</time></trkpt>
        <trkpt lat="28.4167634" lon="104.1369798"><ele>1434.04</ele><time>2026-05-01T20:42:02.000Z</time></trkpt>
        <trkpt lat="28.4167703" lon="104.1368519"><ele>1433.92</ele><time>2026-05-01T20:42:09.000Z</time></trkpt>
        <trkpt lat="28.4167703" lon="104.1368519"><ele>1433.92</ele><time>2026-05-01T20:42:09.000Z</time></trkpt>
        <trkpt lat="28.4162073" lon="104.133161"><ele>1440.8</ele><time>2026-05-01T20:46:00.000Z</time></trkpt>
        <trkpt lat="28.4162506" lon="104.1330583"><ele>1435.78</ele><time>2026-05-01T20:46:08.000Z</time></trkpt>
        <trkpt lat="28.416313" lon="104.132981"><ele>1435.78</ele><time>2026-05-01T20:46:16.000Z</time></trkpt>
        <trkpt lat="28.4163949" lon="104.1329053"><ele>1435.48</ele><time>2026-05-01T20:46:26.000Z</time></trkpt>
        <trkpt lat="28.4164781" lon="104.132841"><ele>1435.18</ele><time>2026-05-01T20:46:35.000Z</time></trkpt>
        <trkpt lat="28.4165606" lon="104.1327809"><ele>1435.01</ele><time>2026-05-01T20:46:45.000Z</time></trkpt>
        <trkpt lat="28.4166242" lon="104.1327326"><ele>1435.14</ele><time>2026-05-01T20:46:59.000Z</time></trkpt>
        <trkpt lat="28.4166242" lon="104.1327326"><ele>1435.14</ele><time>2026-05-01T20:46:59.000Z</time></trkpt>
        <trkpt lat="28.4166317" lon="104.1327113"><ele>1435.96</ele><time>2026-05-01T20:47:47.000Z</time></trkpt>
        <trkpt lat="28.4166317" lon="104.1327113"><ele>1435.96</ele><time>2026-05-01T20:47:47.000Z</time></trkpt>
        <trkpt lat="28.4167114" lon="104.1326598"><ele>1435.96</ele><time>2026-05-01T20:47:55.000Z</time></trkpt>
        <trkpt lat="28.4167291" lon="104.1325502"><ele>1435.12</ele><time>2026-05-01T20:49:31.000Z</time></trkpt>
        <trkpt lat="28.4168034" lon="104.1324747"><ele>1435.52</ele><time>2026-05-01T20:49:45.000Z</time></trkpt>
        <trkpt lat="28.4168445" lon="104.1323736"><ele>1436.76</ele><time>2026-05-01T20:50:07.000Z</time></trkpt>
        <trkpt lat="28.4168974" lon="104.1322687"><ele>1438.09</ele><time>2026-05-01T20:50:19.000Z</time></trkpt>
        <trkpt lat="28.4169349" lon="104.1321733"><ele>1438.62</ele><time>2026-05-01T20:50:33.000Z</time></trkpt>
        <trkpt lat="28.4168367" lon="104.1321898"><ele>1439.12</ele><time>2026-05-01T20:53:41.000Z</time></trkpt>
        <trkpt lat="28.4167492" lon="104.1321555"><ele>1439.45</ele><time>2026-05-01T20:53:53.000Z</time></trkpt>
        <trkpt lat="28.4166732" lon="104.1320835"><ele>1439.59</ele><time>2026-05-01T20:54:07.000Z</time></trkpt>
        <trkpt lat="28.4165896" lon="104.1320183"><ele>1439.6</ele><time>2026-05-01T20:54:19.000Z</time></trkpt>
        <trkpt lat="28.4164995" lon="104.1319623"><ele>1439.47</ele><time>2026-05-01T20:54:31.000Z</time></trkpt>
        <trkpt lat="28.4164867" lon="104.1319389"><ele>1439.36</ele><time>2026-05-01T20:54:35.000Z</time></trkpt>
        <trkpt lat="28.4164144" lon="104.1319388"><ele>1439.71</ele><time>2026-05-01T20:55:07.000Z</time></trkpt>
        <trkpt lat="28.4163178" lon="104.1319461"><ele>1439.78</ele><time>2026-05-01T20:55:20.000Z</time></trkpt>
        <trkpt lat="28.4162077" lon="104.131967"><ele>1440.66</ele><time>2026-05-01T20:55:41.000Z</time></trkpt>
        <trkpt lat="28.4161004" lon="104.1319785"><ele>1440.24</ele><time>2026-05-01T20:55:51.000Z</time></trkpt>
        <trkpt lat="28.4159936" lon="104.1319802"><ele>1441</ele><time>2026-05-01T20:56:01.000Z</time></trkpt>
        <trkpt lat="28.4158921" lon="104.1319607"><ele>1441.38</ele><time>2026-05-01T20:56:11.000Z</time></trkpt>
        <trkpt lat="28.4157992" lon="104.1319025"><ele>1440.95</ele><time>2026-05-01T20:56:23.000Z</time></trkpt>
        <trkpt lat="28.4157299" lon="104.1318113"><ele>1440.32</ele><time>2026-05-01T20:56:32.000Z</time></trkpt>
        <trkpt lat="28.4156782" lon="104.1317173"><ele>1439.57</ele><time>2026-05-01T20:56:40.000Z</time></trkpt>
        <trkpt lat="28.4156267" lon="104.1316255"><ele>1439.56</ele><time>2026-05-01T20:56:48.000Z</time></trkpt>
        <trkpt lat="28.4155624" lon="104.1315323"><ele>1438.39</ele><time>2026-05-01T20:56:58.000Z</time></trkpt>
        <trkpt lat="28.4154909" lon="104.131438"><ele>1436.74</ele><time>2026-05-01T20:57:08.000Z</time></trkpt>
        <trkpt lat="28.4154189" lon="104.1313468"><ele>1435.06</ele><time>2026-05-01T20:57:18.000Z</time></trkpt>
        <trkpt lat="28.4153509" lon="104.1312705"><ele>1433.43</ele><time>2026-05-01T20:57:26.000Z</time></trkpt>
        <trkpt lat="28.4152858" lon="104.1311884"><ele>1432.03</ele><time>2026-05-01T20:57:35.000Z</time></trkpt>
        <trkpt lat="28.4152285" lon="104.1311069"><ele>1430.29</ele><time>2026-05-01T20:57:43.000Z</time></trkpt>
        <trkpt lat="28.4151601" lon="104.1310242"><ele>1427.94</ele><time>2026-05-01T20:57:53.000Z</time></trkpt>
        <trkpt lat="28.4150957" lon="104.1309473"><ele>1426.04</ele><time>2026-05-01T20:58:01.000Z</time></trkpt>
        <trkpt lat="28.415039" lon="104.1308639"><ele>1424.54</ele><time>2026-05-01T20:58:09.000Z</time></trkpt>
        <trkpt lat="28.4149971" lon="104.130768"><ele>1423.12</ele><time>2026-05-01T20:58:17.000Z</time></trkpt>
        <trkpt lat="28.4149657" lon="104.1306635"><ele>1421.43</ele><time>2026-05-01T20:58:25.000Z</time></trkpt>
        <trkpt lat="28.414957" lon="104.1305816"><ele>1419.98</ele><time>2026-05-01T20:58:36.000Z</time></trkpt>
        <trkpt lat="28.4149499" lon="104.1304715"><ele>1419.08</ele><time>2026-05-01T20:58:52.000Z</time></trkpt>
        <trkpt lat="28.414926" lon="104.1303623"><ele>1417.92</ele><time>2026-05-01T20:59:02.000Z</time></trkpt>
        <trkpt lat="28.4148972" lon="104.1302462"><ele>1417.22</ele><time>2026-05-01T20:59:12.000Z</time></trkpt>
        <trkpt lat="28.4148685" lon="104.1301391"><ele>1416.27</ele><time>2026-05-01T20:59:20.000Z</time></trkpt>
        <trkpt lat="28.4148611" lon="104.13002"><ele>1414.94</ele><time>2026-05-01T20:59:33.000Z</time></trkpt>
        <trkpt lat="28.4148178" lon="104.12991"><ele>1413.28</ele><time>2026-05-01T20:59:41.000Z</time></trkpt>
        <trkpt lat="28.4147702" lon="104.1297964"><ele>1412.24</ele><time>2026-05-01T20:59:49.000Z</time></trkpt>
        <trkpt lat="28.4147331" lon="104.1296875"><ele>1411.28</ele><time>2026-05-01T20:59:57.000Z</time></trkpt>
        <trkpt lat="28.4147039" lon="104.1295812"><ele>1409.8</ele><time>2026-05-01T21:00:05.000Z</time></trkpt>
        <trkpt lat="28.4146763" lon="104.1294733"><ele>1408.35</ele><time>2026-05-01T21:00:13.000Z</time></trkpt>
        <trkpt lat="28.4146549" lon="104.129358"><ele>1406.84</ele><time>2026-05-01T21:00:21.000Z</time></trkpt>
        <trkpt lat="28.4146236" lon="104.129243"><ele>1405.11</ele><time>2026-05-01T21:00:29.000Z</time></trkpt>
        <trkpt lat="28.4146058" lon="104.1291336"><ele>1403.76</ele><time>2026-05-01T21:00:37.000Z</time></trkpt>
        <trkpt lat="28.414626" lon="104.129029"><ele>1403.29</ele><time>2026-05-01T21:00:45.000Z</time></trkpt>
        <trkpt lat="28.4146635" lon="104.1289233"><ele>1403.01</ele><time>2026-05-01T21:00:53.000Z</time></trkpt>
        <trkpt lat="28.4146843" lon="104.1288157"><ele>1403.22</ele><time>2026-05-01T21:01:05.000Z</time></trkpt>
        <trkpt lat="28.4146161" lon="104.1287818"><ele>1404.25</ele><time>2026-05-01T21:01:23.000Z</time></trkpt>
        <trkpt lat="28.4145228" lon="104.1287531"><ele>1403.93</ele><time>2026-05-01T21:01:31.000Z</time></trkpt>
        <trkpt lat="28.4144084" lon="104.1287285"><ele>1403.22</ele><time>2026-05-01T21:01:41.000Z</time></trkpt>
        <trkpt lat="28.4142952" lon="104.1287046"><ele>1403.17</ele><time>2026-05-01T21:01:49.000Z</time></trkpt>
        <trkpt lat="28.414185" lon="104.1287095"><ele>1402.36</ele><time>2026-05-01T21:01:57.000Z</time></trkpt>
        <trkpt lat="28.4140813" lon="104.1287321"><ele>1401.6</ele><time>2026-05-01T21:02:05.000Z</time></trkpt>
        <trkpt lat="28.4139848" lon="104.1287594"><ele>1401.28</ele><time>2026-05-01T21:02:13.000Z</time></trkpt>
        <trkpt lat="28.4138941" lon="104.1287828"><ele>1401.62</ele><time>2026-05-01T21:02:21.000Z</time></trkpt>
        <trkpt lat="28.4138006" lon="104.1288145"><ele>1401.18</ele><time>2026-05-01T21:02:29.000Z</time></trkpt>
        <trkpt lat="28.4137634" lon="104.128821"><ele>1401.51</ele><time>2026-05-01T21:02:33.000Z</time></trkpt>
        <trkpt lat="28.413693" lon="104.1288454"><ele>1401.57</ele><time>2026-05-01T21:02:41.000Z</time></trkpt>
        <trkpt lat="28.4135983" lon="104.128874"><ele>1401.27</ele><time>2026-05-01T21:02:49.000Z</time></trkpt>
        <trkpt lat="28.413511" lon="104.1289174"><ele>1400.58</ele><time>2026-05-01T21:02:55.000Z</time></trkpt>
        <trkpt lat="28.4134195" lon="104.1289838"><ele>1399.38</ele><time>2026-05-01T21:03:03.000Z</time></trkpt>
        <trkpt lat="28.4133282" lon="104.1290535"><ele>1398.55</ele><time>2026-05-01T21:03:11.000Z</time></trkpt>
        <trkpt lat="28.4132408" lon="104.1291187"><ele>1397.93</ele><time>2026-05-01T21:03:19.000Z</time></trkpt>
        <trkpt lat="28.4131736" lon="104.1292099"><ele>1397.5</ele><time>2026-05-01T21:03:27.000Z</time></trkpt>
        <trkpt lat="28.4131082" lon="104.1293114"><ele>1396.87</ele><time>2026-05-01T21:03:39.000Z</time></trkpt>
        <trkpt lat="28.4130508" lon="104.1294025"><ele>1395.69</ele><time>2026-05-01T21:03:47.000Z</time></trkpt>
        <trkpt lat="28.4129906" lon="104.1294857"><ele>1395.12</ele><time>2026-05-01T21:03:55.000Z</time></trkpt>
        <trkpt lat="28.4129303" lon="104.1295662"><ele>1395.12</ele><time>2026-05-01T21:04:03.000Z</time></trkpt>
        <trkpt lat="28.412904" lon="104.1296721"><ele>1395.02</ele><time>2026-05-01T21:04:13.000Z</time></trkpt>
        <trkpt lat="28.4129112" lon="104.12975"><ele>1395.06</ele><time>2026-05-01T21:04:21.000Z</time></trkpt>
        <trkpt lat="28.4128662" lon="104.1298226"><ele>1395.25</ele><time>2026-05-01T21:04:35.000Z</time></trkpt>
        <trkpt lat="28.4127967" lon="104.1299167"><ele>1394.78</ele><time>2026-05-01T21:04:43.000Z</time></trkpt>
        <trkpt lat="28.412711" lon="104.1299832"><ele>1392.71</ele><time>2026-05-01T21:04:53.000Z</time></trkpt>
        <trkpt lat="28.4126271" lon="104.130075"><ele>1393.99</ele><time>2026-05-01T21:05:01.000Z</time></trkpt>
        <trkpt lat="28.4125553" lon="104.1301574"><ele>1394.23</ele><time>2026-05-01T21:05:07.000Z</time></trkpt>
        <trkpt lat="28.412489" lon="104.130259"><ele>1394.68</ele><time>2026-05-01T21:05:15.000Z</time></trkpt>
        <trkpt lat="28.4124506" lon="104.1303681"><ele>1395.4</ele><time>2026-05-01T21:05:23.000Z</time></trkpt>
        <trkpt lat="28.4124065" lon="104.1304763"><ele>1396.73</ele><time>2026-05-01T21:05:31.000Z</time></trkpt>
        <trkpt lat="28.4123736" lon="104.1305896"><ele>1396.34</ele><time>2026-05-01T21:05:43.000Z</time></trkpt>
        <trkpt lat="28.4123246" lon="104.1306793"><ele>1395.81</ele><time>2026-05-01T21:05:51.000Z</time></trkpt>
        <trkpt lat="28.4122641" lon="104.1307691"><ele>1396.13</ele><time>2026-05-01T21:05:59.000Z</time></trkpt>
        <trkpt lat="28.4122092" lon="104.1308667"><ele>1396.5</ele><time>2026-05-01T21:06:07.000Z</time></trkpt>
        <trkpt lat="28.4121478" lon="104.1309561"><ele>1396.92</ele><time>2026-05-01T21:06:15.000Z</time></trkpt>
        <trkpt lat="28.4120732" lon="104.1310342"><ele>1397.19</ele><time>2026-05-01T21:06:23.000Z</time></trkpt>
        <trkpt lat="28.4119959" lon="104.1310958"><ele>1397.9</ele><time>2026-05-01T21:06:31.000Z</time></trkpt>
        <trkpt lat="28.4118965" lon="104.1311481"><ele>1397.87</ele><time>2026-05-01T21:06:41.000Z</time></trkpt>
        <trkpt lat="28.4117836" lon="104.1311388"><ele>1396.3</ele><time>2026-05-01T21:06:50.000Z</time></trkpt>
        <trkpt lat="28.4116935" lon="104.1310332"><ele>1395.65</ele><time>2026-05-01T21:07:06.000Z</time></trkpt>
        <trkpt lat="28.4116081" lon="104.1310317"><ele>1396.23</ele><time>2026-05-01T21:07:14.000Z</time></trkpt>
        <trkpt lat="28.4115291" lon="104.130992"><ele>1395.35</ele><time>2026-05-01T21:07:18.000Z</time></trkpt>
        <trkpt lat="28.4114614" lon="104.1308961"><ele>1393.61</ele><time>2026-05-01T21:07:24.000Z</time></trkpt>
        <trkpt lat="28.4114286" lon="104.1307712"><ele>1393.45</ele><time>2026-05-01T21:07:32.000Z</time></trkpt>
        <trkpt lat="28.4114263" lon="104.1306441"><ele>1393.81</ele><time>2026-05-01T21:07:40.000Z</time></trkpt>
        <trkpt lat="28.4114382" lon="104.1305265"><ele>1393.24</ele><time>2026-05-01T21:07:47.000Z</time></trkpt>
        <trkpt lat="28.4114364" lon="104.1304111"><ele>1393.24</ele><time>2026-05-01T21:07:55.000Z</time></trkpt>
        <trkpt lat="28.41144" lon="104.1302942"><ele>1393.31</ele><time>2026-05-01T21:08:03.000Z</time></trkpt>
        <trkpt lat="28.4114541" lon="104.1301772"><ele>1393.56</ele><time>2026-05-01T21:08:11.000Z</time></trkpt>
        <trkpt lat="28.411483" lon="104.1300658"><ele>1393.65</ele><time>2026-05-01T21:08:19.000Z</time></trkpt>
        <trkpt lat="28.4115136" lon="104.1299531"><ele>1394.35</ele><time>2026-05-01T21:08:27.000Z</time></trkpt>
        <trkpt lat="28.4115434" lon="104.1298466"><ele>1394.23</ele><time>2026-05-01T21:08:35.000Z</time></trkpt>
        <trkpt lat="28.4115675" lon="104.1297356"><ele>1394.04</ele><time>2026-05-01T21:08:43.000Z</time></trkpt>
        <trkpt lat="28.4115824" lon="104.1296127"><ele>1393.98</ele><time>2026-05-01T21:08:52.000Z</time></trkpt>
        <trkpt lat="28.4115928" lon="104.1294929"><ele>1394.14</ele><time>2026-05-01T21:09:00.000Z</time></trkpt>
        <trkpt lat="28.4115856" lon="104.129375"><ele>1394.65</ele><time>2026-05-01T21:09:08.000Z</time></trkpt>
        <trkpt lat="28.4115771" lon="104.1292607"><ele>1395.1</ele><time>2026-05-01T21:09:18.000Z</time></trkpt>
        <trkpt lat="28.4115446" lon="104.12924"><ele>1396.57</ele><time>2026-05-01T21:09:24.000Z</time></trkpt>
        <trkpt lat="28.4115198" lon="104.1291504"><ele>1397.65</ele><time>2026-05-01T21:09:46.000Z</time></trkpt>
        <trkpt lat="28.4115028" lon="104.1290379"><ele>1399.44</ele><time>2026-05-01T21:09:53.000Z</time></trkpt>
        <trkpt lat="28.4115089" lon="104.1289059"><ele>1399.15</ele><time>2026-05-01T21:10:01.000Z</time></trkpt>
        <trkpt lat="28.411525" lon="104.1287721"><ele>1398.92</ele><time>2026-05-01T21:10:09.000Z</time></trkpt>
        <trkpt lat="28.4115283" lon="104.1286477"><ele>1398.53</ele><time>2026-05-01T21:10:17.000Z</time></trkpt>
        <trkpt lat="28.4115633" lon="104.128536"><ele>1397.75</ele><time>2026-05-01T21:10:25.000Z</time></trkpt>
        <trkpt lat="28.4115974" lon="104.128424"><ele>1397.78</ele><time>2026-05-01T21:10:33.000Z</time></trkpt>
        <trkpt lat="28.4116101" lon="104.128305"><ele>1396.9</ele><time>2026-05-01T21:10:41.000Z</time></trkpt>
        <trkpt lat="28.4116753" lon="104.1282079"><ele>1395.35</ele><time>2026-05-01T21:10:49.000Z</time></trkpt>
        <trkpt lat="28.4117743" lon="104.1281564"><ele>1394.45</ele><time>2026-05-01T21:10:57.000Z</time></trkpt>
        <trkpt lat="28.4118894" lon="104.1281426"><ele>1394.28</ele><time>2026-05-01T21:11:05.000Z</time></trkpt>
        <trkpt lat="28.4120013" lon="104.1281503"><ele>1394.17</ele><time>2026-05-01T21:11:13.000Z</time></trkpt>
        <trkpt lat="28.4120976" lon="104.128183"><ele>1396.1</ele><time>2026-05-01T21:11:21.000Z</time></trkpt>
        <trkpt lat="28.4121928" lon="104.128235"><ele>1396.94</ele><time>2026-05-01T21:11:29.000Z</time></trkpt>
        <trkpt lat="28.4122846" lon="104.1282653"><ele>1397.29</ele><time>2026-05-01T21:11:37.000Z</time></trkpt>
        <trkpt lat="28.4123761" lon="104.1282972"><ele>1397.69</ele><time>2026-05-01T21:11:54.000Z</time></trkpt>
        <trkpt lat="28.4124705" lon="104.1282983"><ele>1398.47</ele><time>2026-05-01T21:12:04.000Z</time></trkpt>
        <trkpt lat="28.4125573" lon="104.1282667"><ele>1399.13</ele><time>2026-05-01T21:12:12.000Z</time></trkpt>
        <trkpt lat="28.4126336" lon="104.1282035"><ele>1399.76</ele><time>2026-05-01T21:12:20.000Z</time></trkpt>
        <trkpt lat="28.4127137" lon="104.1281273"><ele>1400.43</ele><time>2026-05-01T21:12:30.000Z</time></trkpt>
        <trkpt lat="28.4127734" lon="104.1280365"><ele>1401.29</ele><time>2026-05-01T21:12:40.000Z</time></trkpt>
        <trkpt lat="28.4128594" lon="104.1279869"><ele>1403.51</ele><time>2026-05-01T21:12:50.000Z</time></trkpt>
        <trkpt lat="28.4129475" lon="104.127922"><ele>1403.63</ele><time>2026-05-01T21:13:00.000Z</time></trkpt>
        <trkpt lat="28.4130216" lon="104.1278419"><ele>1402.73</ele><time>2026-05-01T21:13:12.000Z</time></trkpt>
        <trkpt lat="28.4130662" lon="104.1277398"><ele>1402.23</ele><time>2026-05-01T21:13:32.000Z</time></trkpt>
        <trkpt lat="28.413131" lon="104.127645"><ele>1402.03</ele><time>2026-05-01T21:13:44.000Z</time></trkpt>
        <trkpt lat="28.4131852" lon="104.127553"><ele>1402.21</ele><time>2026-05-01T21:13:56.000Z</time></trkpt>
        <trkpt lat="28.4132322" lon="104.1274552"><ele>1403.63</ele><time>2026-05-01T21:14:16.000Z</time></trkpt>
        <trkpt lat="28.4131421" lon="104.1274092"><ele>1402.83</ele><time>2026-05-01T21:15:27.000Z</time></trkpt>
        <trkpt lat="28.4131528" lon="104.1273711"><ele>1400.79</ele><time>2026-05-01T21:15:41.000Z</time></trkpt>
        <trkpt lat="28.4131455" lon="104.1272739"><ele>1396.13</ele><time>2026-05-01T21:15:49.000Z</time></trkpt>
        <trkpt lat="28.4131341" lon="104.1271696"><ele>1393.65</ele><time>2026-05-01T21:15:57.000Z</time></trkpt>
        <trkpt lat="28.4131194" lon="104.1270602"><ele>1393.3</ele><time>2026-05-01T21:16:05.000Z</time></trkpt>
        <trkpt lat="28.413125" lon="104.1269538"><ele>1392.95</ele><time>2026-05-01T21:16:15.000Z</time></trkpt>
        <trkpt lat="28.4131965" lon="104.1269387"><ele>1393.67</ele><time>2026-05-01T21:16:54.000Z</time></trkpt>
        <trkpt lat="28.413288" lon="104.1269781"><ele>1394.58</ele><time>2026-05-01T21:17:06.000Z</time></trkpt>
        <trkpt lat="28.4133083" lon="104.1269185"><ele>1392.4</ele><time>2026-05-01T21:17:37.000Z</time></trkpt>
        <trkpt lat="28.4133329" lon="104.1268235"><ele>1389.94</ele><time>2026-05-01T21:18:33.000Z</time></trkpt>
        <trkpt lat="28.4134037" lon="104.1268332"><ele>1386.92</ele><time>2026-05-01T21:18:55.000Z</time></trkpt>
        <trkpt lat="28.4134313" lon="104.1267642"><ele>1383.35</ele><time>2026-05-01T21:19:15.000Z</time></trkpt>
        <trkpt lat="28.4135064" lon="104.1267332"><ele>1379.49</ele><time>2026-05-01T21:19:29.000Z</time></trkpt>
        <trkpt lat="28.4136461" lon="104.1266945"><ele>1376.34</ele><time>2026-05-01T21:19:51.000Z</time></trkpt>
        <trkpt lat="28.4136829" lon="104.1266491"><ele>1374.68</ele><time>2026-05-01T21:20:06.000Z</time></trkpt>
        <trkpt lat="28.4136829" lon="104.1266491"><ele>1374.68</ele><time>2026-05-01T21:20:06.000Z</time></trkpt>
        <trkpt lat="28.4135908" lon="104.1267415"><ele>1378.79</ele><time>2026-05-01T21:20:27.000Z</time></trkpt>
        <trkpt lat="28.4135908" lon="104.1267415"><ele>1378.79</ele><time>2026-05-01T21:20:27.000Z</time></trkpt>
        <trkpt lat="28.4132625" lon="104.1269421"><ele>1394.27</ele><time>2026-05-01T21:23:45.000Z</time></trkpt>
        <trkpt lat="28.4131632" lon="104.1269461"><ele>1399.23</ele><time>2026-05-01T21:24:05.000Z</time></trkpt>
        <trkpt lat="28.4131287" lon="104.1270423"><ele>1399.23</ele><time>2026-05-01T21:24:17.000Z</time></trkpt>
        <trkpt lat="28.413134" lon="104.1271578"><ele>1398.29</ele><time>2026-05-01T21:24:27.000Z</time></trkpt>
        <trkpt lat="28.4131554" lon="104.1272841"><ele>1396.33</ele><time>2026-05-01T21:24:39.000Z</time></trkpt>
        <trkpt lat="28.4131879" lon="104.1273939"><ele>1396.7</ele><time>2026-05-01T21:24:50.000Z</time></trkpt>
        <trkpt lat="28.4131998" lon="104.1274406"><ele>1396.96</ele><time>2026-05-01T21:24:54.000Z</time></trkpt>
        <trkpt lat="28.4132472" lon="104.1275085"><ele>1396.6</ele><time>2026-05-01T21:25:28.000Z</time></trkpt>
        <trkpt lat="28.4132213" lon="104.1275933"><ele>1397.54</ele><time>2026-05-01T21:25:48.000Z</time></trkpt>
        <trkpt lat="28.4131366" lon="104.1276676"><ele>1399.32</ele><time>2026-05-01T21:26:06.000Z</time></trkpt>
        <trkpt lat="28.4130696" lon="104.1277588"><ele>1401.52</ele><time>2026-05-01T21:26:14.000Z</time></trkpt>
        <trkpt lat="28.4129953" lon="104.1278316"><ele>1401.8</ele><time>2026-05-01T21:26:22.000Z</time></trkpt>
        <trkpt lat="28.4129268" lon="104.127921"><ele>1403.28</ele><time>2026-05-01T21:26:32.000Z</time></trkpt>
        <trkpt lat="28.412861" lon="104.1280137"><ele>1402.78</ele><time>2026-05-01T21:26:43.000Z</time></trkpt>
        <trkpt lat="28.4127843" lon="104.1280875"><ele>1404.37</ele><time>2026-05-01T21:26:53.000Z</time></trkpt>
        <trkpt lat="28.4127025" lon="104.1281453"><ele>1404.89</ele><time>2026-05-01T21:27:01.000Z</time></trkpt>
        <trkpt lat="28.4127025" lon="104.1281453"><ele>1404.89</ele><time>2026-05-01T21:27:01.000Z</time></trkpt>
        <trkpt lat="28.4125017" lon="104.1282463"><ele>1407.91</ele><time>2026-05-01T21:27:14.000Z</time></trkpt>
        <trkpt lat="28.4125017" lon="104.1282463"><ele>1407.91</ele><time>2026-05-01T21:27:21.000Z</time></trkpt>
        <trkpt lat="28.4124155" lon="104.1282776"><ele>1407.91</ele><time>2026-05-01T21:27:29.000Z</time></trkpt>
        <trkpt lat="28.4123079" lon="104.1282827"><ele>1408.06</ele><time>2026-05-01T21:27:39.000Z</time></trkpt>
        <trkpt lat="28.4122053" lon="104.1282531"><ele>1408.25</ele><time>2026-05-01T21:27:47.000Z</time></trkpt>
        <trkpt lat="28.4121148" lon="104.128218"><ele>1409.52</ele><time>2026-05-01T21:27:55.000Z</time></trkpt>
        <trkpt lat="28.4120339" lon="104.1281672"><ele>1408.7</ele><time>2026-05-01T21:28:03.000Z</time></trkpt>
        <trkpt lat="28.411947" lon="104.1281619"><ele>1407.47</ele><time>2026-05-01T21:28:11.000Z</time></trkpt>
        <trkpt lat="28.4118523" lon="104.1281759"><ele>1406.38</ele><time>2026-05-01T21:28:19.000Z</time></trkpt>
        <trkpt lat="28.4117568" lon="104.1282013"><ele>1405.13</ele><time>2026-05-01T21:28:27.000Z</time></trkpt>
        <trkpt lat="28.4116639" lon="104.128232"><ele>1403.42</ele><time>2026-05-01T21:28:35.000Z</time></trkpt>
        <trkpt lat="28.4115977" lon="104.1283235"><ele>1402.27</ele><time>2026-05-01T21:28:45.000Z</time></trkpt>
        <trkpt lat="28.4115766" lon="104.1284311"><ele>1401.21</ele><time>2026-05-01T21:28:53.000Z</time></trkpt>
        <trkpt lat="28.4115471" lon="104.1285484"><ele>1400.04</ele><time>2026-05-01T21:29:03.000Z</time></trkpt>
        <trkpt lat="28.4115165" lon="104.1286725"><ele>1398.94</ele><time>2026-05-01T21:29:13.000Z</time></trkpt>
        <trkpt lat="28.4115071" lon="104.1287916"><ele>1398.61</ele><time>2026-05-01T21:29:21.000Z</time></trkpt>
        <trkpt lat="28.411509" lon="104.1289068"><ele>1398.24</ele><time>2026-05-01T21:29:29.000Z</time></trkpt>
        <trkpt lat="28.4115239" lon="104.1290225"><ele>1397.94</ele><time>2026-05-01T21:29:37.000Z</time></trkpt>
        <trkpt lat="28.4115584" lon="104.1291423"><ele>1397.42</ele><time>2026-05-01T21:29:45.000Z</time></trkpt>
        <trkpt lat="28.4116011" lon="104.1292618"><ele>1397.98</ele><time>2026-05-01T21:29:53.000Z</time></trkpt>
        <trkpt lat="28.4116078" lon="104.1293768"><ele>1399.08</ele><time>2026-05-01T21:30:01.000Z</time></trkpt>
        <trkpt lat="28.4115902" lon="104.129494"><ele>1400.93</ele><time>2026-05-01T21:30:11.000Z</time></trkpt>
        <trkpt lat="28.4115741" lon="104.1296178"><ele>1400.99</ele><time>2026-05-01T21:30:21.000Z</time></trkpt>
        <trkpt lat="28.4115656" lon="104.1297329"><ele>1400.47</ele><time>2026-05-01T21:30:29.000Z</time></trkpt>
        <trkpt lat="28.4115515" lon="104.1298498"><ele>1398.16</ele><time>2026-05-01T21:30:37.000Z</time></trkpt>
        <trkpt lat="28.4115244" lon="104.1299591"><ele>1396.15</ele><time>2026-05-01T21:30:45.000Z</time></trkpt>
        <trkpt lat="28.4114886" lon="104.1300615"><ele>1395.19</ele><time>2026-05-01T21:30:53.000Z</time></trkpt>
        <trkpt lat="28.4114604" lon="104.1301648"><ele>1395.43</ele><time>2026-05-01T21:31:01.000Z</time></trkpt>
        <trkpt lat="28.4114348" lon="104.1302713"><ele>1395.09</ele><time>2026-05-01T21:31:09.000Z</time></trkpt>
        <trkpt lat="28.4114308" lon="104.1303756"><ele>1394.95</ele><time>2026-05-01T21:31:17.000Z</time></trkpt>
        <trkpt lat="28.4114374" lon="104.1304919"><ele>1394.93</ele><time>2026-05-01T21:31:27.000Z</time></trkpt>
        <trkpt lat="28.4114449" lon="104.1305995"><ele>1395.19</ele><time>2026-05-01T21:31:37.000Z</time></trkpt>
        <trkpt lat="28.4114534" lon="104.1307137"><ele>1395.27</ele><time>2026-05-01T21:31:49.000Z</time></trkpt>
        <trkpt lat="28.4114581" lon="104.1308259"><ele>1394.9</ele><time>2026-05-01T21:31:59.000Z</time></trkpt>
        <trkpt lat="28.4115165" lon="104.1309206"><ele>1394.51</ele><time>2026-05-01T21:32:11.000Z</time></trkpt>
        <trkpt lat="28.411594" lon="104.1309919"><ele>1395.07</ele><time>2026-05-01T21:32:21.000Z</time></trkpt>
        <trkpt lat="28.4116769" lon="104.1310486"><ele>1395.7</ele><time>2026-05-01T21:32:31.000Z</time></trkpt>
        <trkpt lat="28.41177" lon="104.131078"><ele>1395.66</ele><time>2026-05-01T21:32:49.000Z</time></trkpt>
        <trkpt lat="28.4118709" lon="104.1310863"><ele>1396.01</ele><time>2026-05-01T21:33:01.000Z</time></trkpt>
        <trkpt lat="28.4119732" lon="104.1310853"><ele>1396.93</ele><time>2026-05-01T21:33:35.000Z</time></trkpt>
        <trkpt lat="28.4120706" lon="104.1310488"><ele>1397</ele><time>2026-05-01T21:33:45.000Z</time></trkpt>
        <trkpt lat="28.4121519" lon="104.1309727"><ele>1396.81</ele><time>2026-05-01T21:33:55.000Z</time></trkpt>
        <trkpt lat="28.4122094" lon="104.1308761"><ele>1398.05</ele><time>2026-05-01T21:34:05.000Z</time></trkpt>
        <trkpt lat="28.4122541" lon="104.1307673"><ele>1400.48</ele><time>2026-05-01T21:34:19.000Z</time></trkpt>
        <trkpt lat="28.4122887" lon="104.130695"><ele>1402.63</ele><time>2026-05-01T21:34:27.000Z</time></trkpt>
        <trkpt lat="28.4123355" lon="104.1305977"><ele>1402.77</ele><time>2026-05-01T21:34:39.000Z</time></trkpt>
        <trkpt lat="28.4123685" lon="104.1304844"><ele>1401.69</ele><time>2026-05-01T21:34:49.000Z</time></trkpt>
        <trkpt lat="28.4124019" lon="104.1303809"><ele>1399.71</ele><time>2026-05-01T21:34:59.000Z</time></trkpt>
        <trkpt lat="28.4124513" lon="104.1302833"><ele>1399.64</ele><time>2026-05-01T21:35:09.000Z</time></trkpt>
        <trkpt lat="28.4125041" lon="104.1301863"><ele>1399.72</ele><time>2026-05-01T21:35:19.000Z</time></trkpt>
        <trkpt lat="28.4125638" lon="104.1300896"><ele>1400.58</ele><time>2026-05-01T21:35:29.000Z</time></trkpt>
        <trkpt lat="28.4126393" lon="104.1300073"><ele>1398.85</ele><time>2026-05-01T21:35:39.000Z</time></trkpt>
        <trkpt lat="28.412721" lon="104.1299247"><ele>1397.1</ele><time>2026-05-01T21:35:49.000Z</time></trkpt>
        <trkpt lat="28.4127865" lon="104.129828"><ele>1396.4</ele><time>2026-05-01T21:35:59.000Z</time></trkpt>
        <trkpt lat="28.4128486" lon="104.1297389"><ele>1395.37</ele><time>2026-05-01T21:36:09.000Z</time></trkpt>
        <trkpt lat="28.4128925" lon="104.1296326"><ele>1394.01</ele><time>2026-05-01T21:36:19.000Z</time></trkpt>
        <trkpt lat="28.4129277" lon="104.1295316"><ele>1394.69</ele><time>2026-05-01T21:36:27.000Z</time></trkpt>
        <trkpt lat="28.4129823" lon="104.1294323"><ele>1394.36</ele><time>2026-05-01T21:36:37.000Z</time></trkpt>
        <trkpt lat="28.4130537" lon="104.129349"><ele>1394.11</ele><time>2026-05-01T21:36:45.000Z</time></trkpt>
        <trkpt lat="28.4131346" lon="104.129266"><ele>1393.25</ele><time>2026-05-01T21:36:53.000Z</time></trkpt>
        <trkpt lat="28.4132065" lon="104.1291829"><ele>1393.44</ele><time>2026-05-01T21:37:01.000Z</time></trkpt>
        <trkpt lat="28.4132763" lon="104.1291058"><ele>1393.51</ele><time>2026-05-01T21:37:09.000Z</time></trkpt>
        <trkpt lat="28.4133619" lon="104.1290453"><ele>1393.69</ele><time>2026-05-01T21:37:17.000Z</time></trkpt>
        <trkpt lat="28.4134444" lon="104.1289824"><ele>1394.66</ele><time>2026-05-01T21:37:25.000Z</time></trkpt>
        <trkpt lat="28.4135308" lon="104.1289212"><ele>1397.1</ele><time>2026-05-01T21:37:33.000Z</time></trkpt>
        <trkpt lat="28.4136232" lon="104.1288645"><ele>1399.33</ele><time>2026-05-01T21:37:41.000Z</time></trkpt>
        <trkpt lat="28.413719" lon="104.1288142"><ele>1401.25</ele><time>2026-05-01T21:37:49.000Z</time></trkpt>
        <trkpt lat="28.4138096" lon="104.1287791"><ele>1402.16</ele><time>2026-05-01T21:37:57.000Z</time></trkpt>
        <trkpt lat="28.4139023" lon="104.1287644"><ele>1402.39</ele><time>2026-05-01T21:38:05.000Z</time></trkpt>
        <trkpt lat="28.413995" lon="104.1287479"><ele>1403.38</ele><time>2026-05-01T21:38:13.000Z</time></trkpt>
        <trkpt lat="28.414087" lon="104.1287386"><ele>1403.61</ele><time>2026-05-01T21:38:21.000Z</time></trkpt>
        <trkpt lat="28.4141808" lon="104.1287295"><ele>1403.34</ele><time>2026-05-01T21:38:29.000Z</time></trkpt>
        <trkpt lat="28.4142785" lon="104.128719"><ele>1403.71</ele><time>2026-05-01T21:38:37.000Z</time></trkpt>
        <trkpt lat="28.4143762" lon="104.1287333"><ele>1401.9</ele><time>2026-05-01T21:38:45.000Z</time></trkpt>
        <trkpt lat="28.4144686" lon="104.1287667"><ele>1401.09</ele><time>2026-05-01T21:38:53.000Z</time></trkpt>
        <trkpt lat="28.4145624" lon="104.1288024"><ele>1401.05</ele><time>2026-05-01T21:39:01.000Z</time></trkpt>
        <trkpt lat="28.4146563" lon="104.1288334"><ele>1401.47</ele><time>2026-05-01T21:39:09.000Z</time></trkpt>
        <trkpt lat="28.4147343" lon="104.1289064"><ele>1402.08</ele><time>2026-05-01T21:39:19.000Z</time></trkpt>
        <trkpt lat="28.4147428" lon="104.1290097"><ele>1402.02</ele><time>2026-05-01T21:39:27.000Z</time></trkpt>
        <trkpt lat="28.4147172" lon="104.1291229"><ele>1402.47</ele><time>2026-05-01T21:39:35.000Z</time></trkpt>
        <trkpt lat="28.4146911" lon="104.1292328"><ele>1402.92</ele><time>2026-05-01T21:39:43.000Z</time></trkpt>
        <trkpt lat="28.4146737" lon="104.1293466"><ele>1403.37</ele><time>2026-05-01T21:39:53.000Z</time></trkpt>
        <trkpt lat="28.4146663" lon="104.1294611"><ele>1403.7</ele><time>2026-05-01T21:40:03.000Z</time></trkpt>
        <trkpt lat="28.4146977" lon="104.1295702"><ele>1404.34</ele><time>2026-05-01T21:40:13.000Z</time></trkpt>
        <trkpt lat="28.4147414" lon="104.1296829"><ele>1404.83</ele><time>2026-05-01T21:40:23.000Z</time></trkpt>
        <trkpt lat="28.4147785" lon="104.1297936"><ele>1406.07</ele><time>2026-05-01T21:40:33.000Z</time></trkpt>
        <trkpt lat="28.41481" lon="104.1299036"><ele>1407.24</ele><time>2026-05-01T21:40:43.000Z</time></trkpt>
        <trkpt lat="28.4148429" lon="104.1300132"><ele>1408.51</ele><time>2026-05-01T21:40:53.000Z</time></trkpt>
        <trkpt lat="28.4148745" lon="104.1301259"><ele>1410.01</ele><time>2026-05-01T21:41:03.000Z</time></trkpt>
        <trkpt lat="28.4149028" lon="104.1302282"><ele>1411.41</ele><time>2026-05-01T21:41:13.000Z</time></trkpt>
        <trkpt lat="28.4149481" lon="104.1303305"><ele>1413.47</ele><time>2026-05-01T21:41:25.000Z</time></trkpt>
        <trkpt lat="28.4149755" lon="104.1304434"><ele>1414.57</ele><time>2026-05-01T21:41:37.000Z</time></trkpt>
        <trkpt lat="28.4149872" lon="104.1305537"><ele>1415.77</ele><time>2026-05-01T21:41:47.000Z</time></trkpt>
        <trkpt lat="28.4149974" lon="104.130672"><ele>1417.32</ele><time>2026-05-01T21:41:59.000Z</time></trkpt>
        <trkpt lat="28.4150203" lon="104.1307849"><ele>1420.4</ele><time>2026-05-01T21:42:09.000Z</time></trkpt>
        <trkpt lat="28.4150203" lon="104.1307849"><ele>1420.4</ele><time>2026-05-01T21:42:09.000Z</time></trkpt>
        <trkpt lat="28.4153775" lon="104.1311496"><ele>1439.57</ele><time>2026-05-01T21:42:57.000Z</time></trkpt>
        <trkpt lat="28.4154057" lon="104.1312649"><ele>1432.65</ele><time>2026-05-01T21:43:15.000Z</time></trkpt>
        <trkpt lat="28.4154454" lon="104.1313642"><ele>1432.65</ele><time>2026-05-01T21:43:25.000Z</time></trkpt>
        <trkpt lat="28.4154454" lon="104.1313642"><ele>1432.65</ele><time>2026-05-01T21:43:25.000Z</time></trkpt>
        <trkpt lat="28.4156755" lon="104.1316544"><ele>1445.7</ele><time>2026-05-01T21:43:50.000Z</time></trkpt>
        <trkpt lat="28.4157839" lon="104.1318397"><ele>1438.79</ele><time>2026-05-01T21:44:11.000Z</time></trkpt>
        <trkpt lat="28.4158477" lon="104.1319167"><ele>1438.79</ele><time>2026-05-01T21:44:21.000Z</time></trkpt>
        <trkpt lat="28.4159325" lon="104.131958"><ele>1438.5</ele><time>2026-05-01T21:44:31.000Z</time></trkpt>
        <trkpt lat="28.4160312" lon="104.1319854"><ele>1438.76</ele><time>2026-05-01T21:44:41.000Z</time></trkpt>
        <trkpt lat="28.4161301" lon="104.1319861"><ele>1439.95</ele><time>2026-05-01T21:44:49.000Z</time></trkpt>
        <trkpt lat="28.4162244" lon="104.1319711"><ele>1441.27</ele><time>2026-05-01T21:44:59.000Z</time></trkpt>
        <trkpt lat="28.4163281" lon="104.131934"><ele>1443.23</ele><time>2026-05-01T21:46:03.000Z</time></trkpt>
        <trkpt lat="28.4163645" lon="104.1319162"><ele>1445.47</ele><time>2026-05-01T21:46:09.000Z</time></trkpt>
        <trkpt lat="28.4164496" lon="104.1319366"><ele>1446.69</ele><time>2026-05-01T21:46:53.000Z</time></trkpt>
        <trkpt lat="28.4165383" lon="104.1319728"><ele>1445.15</ele><time>2026-05-01T21:47:27.000Z</time></trkpt>
        <trkpt lat="28.4166231" lon="104.1320219"><ele>1443.71</ele><time>2026-05-01T21:47:37.000Z</time></trkpt>
        <trkpt lat="28.4167099" lon="104.132081"><ele>1442.46</ele><time>2026-05-01T21:47:47.000Z</time></trkpt>
        <trkpt lat="28.4168032" lon="104.1321491"><ele>1440.99</ele><time>2026-05-01T21:47:57.000Z</time></trkpt>
        <trkpt lat="28.4168938" lon="104.1322012"><ele>1440.28</ele><time>2026-05-01T21:48:06.000Z</time></trkpt>
        <trkpt lat="28.4168977" lon="104.1323053"><ele>1439.81</ele><time>2026-05-01T21:49:36.000Z</time></trkpt>
        <trkpt lat="28.4168691" lon="104.1324076"><ele>1439.72</ele><time>2026-05-01T21:49:46.000Z</time></trkpt>
        <trkpt lat="28.4168472" lon="104.1324627"><ele>1439.18</ele><time>2026-05-01T21:49:54.000Z</time></trkpt>
        <trkpt lat="28.4167806" lon="104.1325394"><ele>1438.55</ele><time>2026-05-01T21:50:44.000Z</time></trkpt>
        <trkpt lat="28.4167375" lon="104.1326451"><ele>1437.58</ele><time>2026-05-01T21:50:56.000Z</time></trkpt>
        <trkpt lat="28.4167613" lon="104.132744"><ele>1435.95</ele><time>2026-05-01T21:51:04.000Z</time></trkpt>
        <trkpt lat="28.4167933" lon="104.1328498"><ele>1434.68</ele><time>2026-05-01T21:51:12.000Z</time></trkpt>
        <trkpt lat="28.4167705" lon="104.1328931"><ele>1434.28</ele><time>2026-05-01T21:51:20.000Z</time></trkpt>
        <trkpt lat="28.4167145" lon="104.1329741"><ele>1434.23</ele><time>2026-05-01T21:52:24.000Z</time></trkpt>
        <trkpt lat="28.4166281" lon="104.1330382"><ele>1436</ele><time>2026-05-01T21:52:38.000Z</time></trkpt>
        <trkpt lat="28.4165403" lon="104.1330899"><ele>1437.19</ele><time>2026-05-01T21:52:52.000Z</time></trkpt>
        <trkpt lat="28.4165314" lon="104.1331976"><ele>1438.16</ele><time>2026-05-01T21:53:16.000Z</time></trkpt>
        <trkpt lat="28.4165492" lon="104.1332583"><ele>1438.27</ele><time>2026-05-01T21:53:20.000Z</time></trkpt>
        <trkpt lat="28.4165717" lon="104.13337"><ele>1438.58</ele><time>2026-05-01T21:53:28.000Z</time></trkpt>
        <trkpt lat="28.416598" lon="104.1334806"><ele>1438.15</ele><time>2026-05-01T21:53:34.000Z</time></trkpt>
        <trkpt lat="28.41665" lon="104.1336015"><ele>1437.15</ele><time>2026-05-01T21:53:40.000Z</time></trkpt>
        <trkpt lat="28.41665" lon="104.1336015"><ele>1437.15</ele><time>2026-05-01T21:53:40.000Z</time></trkpt>
        <trkpt lat="28.4167073" lon="104.1337307"><ele>1436.55</ele><time>2026-05-01T21:53:46.000Z</time></trkpt>
        <trkpt lat="28.4167638" lon="104.1338591"><ele>1438.29</ele><time>2026-05-01T21:53:52.000Z</time></trkpt>
        <trkpt lat="28.4167953" lon="104.1339778"><ele>1438.45</ele><time>2026-05-01T21:53:58.000Z</time></trkpt>
        <trkpt lat="28.4168335" lon="104.1341027"><ele>1437.31</ele><time>2026-05-01T21:54:05.000Z</time></trkpt>
        <trkpt lat="28.41693" lon="104.1343193"><ele>1443.82</ele><time>2026-05-01T21:54:22.000Z</time></trkpt>
        <trkpt lat="28.4169101" lon="104.1344771"><ele>1443.82</ele><time>2026-05-01T21:54:24.000Z</time></trkpt>
        <trkpt lat="28.4169098" lon="104.1345903"><ele>1441.56</ele><time>2026-05-01T21:54:28.000Z</time></trkpt>
        <trkpt lat="28.4169178" lon="104.1346975"><ele>1439.64</ele><time>2026-05-01T21:54:34.000Z</time></trkpt>
        <trkpt lat="28.4169178" lon="104.1346975"><ele>1439.64</ele><time>2026-05-01T21:54:34.000Z</time></trkpt>
        <trkpt lat="28.4169211" lon="104.1348139"><ele>1436.86</ele><time>2026-05-01T21:54:42.000Z</time></trkpt>
        <trkpt lat="28.4169234" lon="104.1349367"><ele>1436.48</ele><time>2026-05-01T21:54:50.000Z</time></trkpt>
        <trkpt lat="28.416934" lon="104.1350529"><ele>1437.15</ele><time>2026-05-01T21:54:58.000Z</time></trkpt>
        <trkpt lat="28.4169276" lon="104.1351769"><ele>1436.88</ele><time>2026-05-01T21:55:06.000Z</time></trkpt>
        <trkpt lat="28.4168816" lon="104.135297"><ele>1437.58</ele><time>2026-05-01T21:55:14.000Z</time></trkpt>
        <trkpt lat="28.4168257" lon="104.1353798"><ele>1438.51</ele><time>2026-05-01T21:55:20.000Z</time></trkpt>
        <trkpt lat="28.4167598" lon="104.1354706"><ele>1439.03</ele><time>2026-05-01T21:55:26.000Z</time></trkpt>
        <trkpt lat="28.4166894" lon="104.1355599"><ele>1438.61</ele><time>2026-05-01T21:55:32.000Z</time></trkpt>
        <trkpt lat="28.4166106" lon="104.1356458"><ele>1438.14</ele><time>2026-05-01T21:55:38.000Z</time></trkpt>
        <trkpt lat="28.4165244" lon="104.1357285"><ele>1436.84</ele><time>2026-05-01T21:55:44.000Z</time></trkpt>
        <trkpt lat="28.416437" lon="104.1358137"><ele>1436.01</ele><time>2026-05-01T21:55:50.000Z</time></trkpt>
        <trkpt lat="28.4163442" lon="104.1358943"><ele>1435.54</ele><time>2026-05-01T21:55:56.000Z</time></trkpt>
        <trkpt lat="28.4162518" lon="104.1359741"><ele>1435.18</ele><time>2026-05-01T21:56:02.000Z</time></trkpt>
        <trkpt lat="28.4161557" lon="104.1360545"><ele>1434.9</ele><time>2026-05-01T21:56:08.000Z</time></trkpt>
        <trkpt lat="28.4160594" lon="104.1361364"><ele>1435.91</ele><time>2026-05-01T21:56:14.000Z</time></trkpt>
        <trkpt lat="28.4159566" lon="104.1362217"><ele>1434.91</ele><time>2026-05-01T21:56:20.000Z</time></trkpt>
        <trkpt lat="28.4157634" lon="104.1363656"><ele>1435.95</ele><time>2026-05-01T21:56:32.000Z</time></trkpt>
        <trkpt lat="28.4156586" lon="104.1364384"><ele>1435.95</ele><time>2026-05-01T21:56:38.000Z</time></trkpt>
        <trkpt lat="28.4155586" lon="104.1365085"><ele>1435.72</ele><time>2026-05-01T21:56:44.000Z</time></trkpt>
        <trkpt lat="28.4154583" lon="104.136583"><ele>1435.28</ele><time>2026-05-01T21:56:50.000Z</time></trkpt>
        <trkpt lat="28.4153564" lon="104.1366553"><ele>1435.32</ele><time>2026-05-01T21:56:56.000Z</time></trkpt>
        <trkpt lat="28.4153564" lon="104.1366553"><ele>1435.32</ele><time>2026-05-01T21:56:56.000Z</time></trkpt>
        <trkpt lat="28.4152553" lon="104.1367254"><ele>1435.31</ele><time>2026-05-01T21:57:02.000Z</time></trkpt>
        <trkpt lat="28.4151506" lon="104.136796"><ele>1434.67</ele><time>2026-05-01T21:57:08.000Z</time></trkpt>
        <trkpt lat="28.4150482" lon="104.1368715"><ele>1434.44</ele><time>2026-05-01T21:57:14.000Z</time></trkpt>
        <trkpt lat="28.4149465" lon="104.1369466"><ele>1434.29</ele><time>2026-05-01T21:57:20.000Z</time></trkpt>
        <trkpt lat="28.4148501" lon="104.1370225"><ele>1435.17</ele><time>2026-05-01T21:57:26.000Z</time></trkpt>
        <trkpt lat="28.4147567" lon="104.1371032"><ele>1435.54</ele><time>2026-05-01T21:57:32.000Z</time></trkpt>
        <trkpt lat="28.4146628" lon="104.137186"><ele>1436.09</ele><time>2026-05-01T21:57:38.000Z</time></trkpt>
        <trkpt lat="28.4145667" lon="104.1372673"><ele>1436.09</ele><time>2026-05-01T21:57:44.000Z</time></trkpt>
        <trkpt lat="28.4144642" lon="104.1373473"><ele>1436.72</ele><time>2026-05-01T21:57:50.000Z</time></trkpt>
        <trkpt lat="28.4143635" lon="104.1374151"><ele>1437</ele><time>2026-05-01T21:57:56.000Z</time></trkpt>
        <trkpt lat="28.4142637" lon="104.1374849"><ele>1437.05</ele><time>2026-05-01T21:58:02.000Z</time></trkpt>
        <trkpt lat="28.4141667" lon="104.1375541"><ele>1437.32</ele><time>2026-05-01T21:58:08.000Z</time></trkpt>
        <trkpt lat="28.4140631" lon="104.1376275"><ele>1437.44</ele><time>2026-05-01T21:58:14.000Z</time></trkpt>
        <trkpt lat="28.4139645" lon="104.1377078"><ele>1437.36</ele><time>2026-05-01T21:58:20.000Z</time></trkpt>
        <trkpt lat="28.413876" lon="104.1377817"><ele>1437.24</ele><time>2026-05-01T21:58:26.000Z</time></trkpt>
        <trkpt lat="28.4137941" lon="104.1378596"><ele>1437.28</ele><time>2026-05-01T21:58:32.000Z</time></trkpt>
        <trkpt lat="28.4137128" lon="104.1379502"><ele>1437.29</ele><time>2026-05-01T21:58:38.000Z</time></trkpt>
        <trkpt lat="28.4136375" lon="104.1380506"><ele>1437.41</ele><time>2026-05-01T21:58:45.000Z</time></trkpt>
        <trkpt lat="28.4136375" lon="104.1380506"><ele>1437.41</ele><time>2026-05-01T21:58:45.000Z</time></trkpt>
        <trkpt lat="28.4112171" lon="104.1406806"><ele>1438.24</ele><time>2026-05-01T22:01:38.000Z</time></trkpt>
        <trkpt lat="28.4112171" lon="104.1406806"><ele>1438.24</ele><time>2026-05-01T22:01:43.000Z</time></trkpt>
        <trkpt lat="28.4112171" lon="104.1406806"><ele>1438.24</ele><time>2026-05-01T22:01:43.000Z</time></trkpt>
        <trkpt lat="28.4101257" lon="104.1409247"><ele>1443.17</ele><time>2026-05-01T22:04:49.000Z</time></trkpt>
        <trkpt lat="28.4101257" lon="104.1409247"><ele>1443.17</ele><time>2026-05-01T22:04:53.000Z</time></trkpt>
        <trkpt lat="28.4100278" lon="104.1409238"><ele>1443.17</ele><time>2026-05-01T22:05:17.000Z</time></trkpt>
        <trkpt lat="28.4099427" lon="104.1409641"><ele>1441.67</ele><time>2026-05-01T22:05:45.000Z</time></trkpt>
        <trkpt lat="28.4098542" lon="104.1409883"><ele>1442.49</ele><time>2026-05-01T22:06:11.000Z</time></trkpt>
        <trkpt lat="28.4098305" lon="104.1410874"><ele>1445.04</ele><time>2026-05-01T22:08:33.000Z</time></trkpt>
        <trkpt lat="28.4098305" lon="104.1410874"><ele>1445.04</ele><time>2026-05-01T22:08:33.000Z</time></trkpt>
        <trkpt lat="28.4098778" lon="104.1411499"><ele>1443.22</ele><time>2026-05-01T22:17:37.000Z</time></trkpt>
        <trkpt lat="28.4098778" lon="104.1411499"><ele>1443.22</ele><time>2026-05-01T22:17:40.000Z</time></trkpt>
        <trkpt lat="28.4098132" lon="104.1410764"><ele>1443.22</ele><time>2026-05-01T22:18:30.000Z</time></trkpt>
        <trkpt lat="28.4097519" lon="104.1411526"><ele>1445.39</ele><time>2026-05-01T22:20:17.000Z</time></trkpt>
        <trkpt lat="28.4097603" lon="104.1412614"><ele>1447.24</ele><time>2026-05-01T22:21:48.000Z</time></trkpt>
        <trkpt lat="28.4097289" lon="104.1413626"><ele>1446.85</ele><time>2026-05-01T22:22:08.000Z</time></trkpt>
        <trkpt lat="28.4096939" lon="104.1414242"><ele>1446.89</ele><time>2026-05-01T22:22:18.000Z</time></trkpt>
        <trkpt lat="28.4096067" lon="104.1413892"><ele>1447.5</ele><time>2026-05-01T22:25:09.000Z</time></trkpt>
        <trkpt lat="28.4095963" lon="104.1414214"><ele>1447.62</ele><time>2026-05-01T22:25:27.000Z</time></trkpt>
        <trkpt lat="28.4095963" lon="104.1414214"><ele>1447.62</ele><time>2026-05-01T22:25:27.000Z</time></trkpt>
        <trkpt lat="28.4096233" lon="104.1418558"><ele>1441.26</ele><time>2026-05-01T22:28:43.000Z</time></trkpt>
        <trkpt lat="28.4096233" lon="104.1418558"><ele>1441.26</ele><time>2026-05-01T22:28:44.000Z</time></trkpt>
        <trkpt lat="28.4096614" lon="104.1419529"><ele>1441.26</ele><time>2026-05-01T22:28:54.000Z</time></trkpt>
        <trkpt lat="28.4097318" lon="104.1420266"><ele>1441.44</ele><time>2026-05-01T22:29:12.000Z</time></trkpt>
        <trkpt lat="28.4098182" lon="104.1420641"><ele>1441.82</ele><time>2026-05-01T22:29:28.000Z</time></trkpt>
        <trkpt lat="28.4098336" lon="104.1421607"><ele>1440.45</ele><time>2026-05-01T22:35:06.000Z</time></trkpt>
        <trkpt lat="28.4097327" lon="104.1421793"><ele>1437.9</ele><time>2026-05-01T22:35:22.000Z</time></trkpt>
        <trkpt lat="28.4096395" lon="104.1421763"><ele>1438.03</ele><time>2026-05-01T22:35:36.000Z</time></trkpt>
        <trkpt lat="28.4096395" lon="104.1421763"><ele>1438.03</ele><time>2026-05-01T22:35:36.000Z</time></trkpt>
        <trkpt lat="28.4092972" lon="104.1427724"><ele>1530.52</ele><time>2026-05-01T22:37:33.000Z</time></trkpt>
        <trkpt lat="28.4092972" lon="104.1427724"><ele>1530.52</ele><time>2026-05-01T22:37:35.000Z</time></trkpt>
        <trkpt lat="28.4092544" lon="104.1422935"><ele>1530.52</ele><time>2026-05-01T22:37:37.000Z</time></trkpt>
        <trkpt lat="28.4092057" lon="104.1421457"><ele>1499.16</ele><time>2026-05-01T22:37:43.000Z</time></trkpt>
        <trkpt lat="28.4091323" lon="104.14208"><ele>1480.24</ele><time>2026-05-01T22:38:01.000Z</time></trkpt>
        <trkpt lat="28.4090425" lon="104.1420683"><ele>1467.68</ele><time>2026-05-01T22:38:17.000Z</time></trkpt>
        <trkpt lat="28.4089459" lon="104.1420751"><ele>1460.66</ele><time>2026-05-01T22:38:33.000Z</time></trkpt>
        <trkpt lat="28.4088615" lon="104.1421343"><ele>1458.01</ele><time>2026-05-01T22:39:07.000Z</time></trkpt>
        <trkpt lat="28.4087811" lon="104.1422366"><ele>1457.44</ele><time>2026-05-01T22:40:21.000Z</time></trkpt>
        <trkpt lat="28.4087029" lon="104.1423023"><ele>1455.63</ele><time>2026-05-01T22:40:55.000Z</time></trkpt>
        <trkpt lat="28.408729" lon="104.1423955"><ele>1457.4</ele><time>2026-05-01T22:41:29.000Z</time></trkpt>
        <trkpt lat="28.4087934" lon="104.1424684"><ele>1454.49</ele><time>2026-05-01T22:41:47.000Z</time></trkpt>
        <trkpt lat="28.4088416" lon="104.1425589"><ele>1453.39</ele><time>2026-05-01T22:42:07.000Z</time></trkpt>
        <trkpt lat="28.4088303" lon="104.1426578"><ele>1451.29</ele><time>2026-05-01T22:42:33.000Z</time></trkpt>
        <trkpt lat="28.4088434" lon="104.1427625"><ele>1449.49</ele><time>2026-05-01T22:43:03.000Z</time></trkpt>
        <trkpt lat="28.4088675" lon="104.1428668"><ele>1446.21</ele><time>2026-05-01T22:46:33.000Z</time></trkpt>
        <trkpt lat="28.4088675" lon="104.1428668"><ele>1446.21</ele><time>2026-05-01T22:46:33.000Z</time></trkpt>
        <trkpt lat="28.4089126" lon="104.1428744"><ele>1429.75</ele><time>2026-05-01T22:47:57.000Z</time></trkpt>
        <trkpt lat="28.4089126" lon="104.1428744"><ele>1429.75</ele><time>2026-05-01T22:48:00.000Z</time></trkpt>
        <trkpt lat="28.4089546" lon="104.142967"><ele>1429.75</ele><time>2026-05-01T22:48:34.000Z</time></trkpt>
        <trkpt lat="28.40903" lon="104.1430392"><ele>1433.6</ele><time>2026-05-01T22:48:50.000Z</time></trkpt>
        <trkpt lat="28.4091147" lon="104.1430949"><ele>1434.79</ele><time>2026-05-01T22:49:02.000Z</time></trkpt>
        <trkpt lat="28.4091965" lon="104.143154"><ele>1435.21</ele><time>2026-05-01T22:49:20.000Z</time></trkpt>
        <trkpt lat="28.4091965" lon="104.143154"><ele>1435.21</ele><time>2026-05-01T22:49:20.000Z</time></trkpt>
        <trkpt lat="28.4092775" lon="104.1430934"><ele>1433.17</ele><time>2026-05-01T22:50:18.000Z</time></trkpt>
        <trkpt lat="28.4092775" lon="104.1430934"><ele>1433.17</ele><time>2026-05-01T22:50:18.000Z</time></trkpt>
        <trkpt lat="28.4093534" lon="104.143173"><ele>1433.17</ele><time>2026-05-01T22:50:20.000Z</time></trkpt>
        <trkpt lat="28.4092896" lon="104.1431675"><ele>1433.13</ele><time>2026-05-01T22:50:44.000Z</time></trkpt>
        <trkpt lat="28.4093448" lon="104.143142"><ele>1431.13</ele><time>2026-05-01T22:51:06.000Z</time></trkpt>
        <trkpt lat="28.4094328" lon="104.1431518"><ele>1432.57</ele><time>2026-05-01T22:51:30.000Z</time></trkpt>
        <trkpt lat="28.4094328" lon="104.1431518"><ele>1432.57</ele><time>2026-05-01T22:51:30.000Z</time></trkpt>
        <trkpt lat="28.409384" lon="104.1432358"><ele>1438.23</ele><time>2026-05-01T22:52:04.000Z</time></trkpt>
        <trkpt lat="28.409384" lon="104.1432358"><ele>1438.23</ele><time>2026-05-01T22:52:11.000Z</time></trkpt>
        <trkpt lat="28.4094834" lon="104.1432569"><ele>1438.23</ele><time>2026-05-01T22:52:17.000Z</time></trkpt>
        <trkpt lat="28.4095343" lon="104.143347"><ele>1437.99</ele><time>2026-05-01T22:52:23.000Z</time></trkpt>
        <trkpt lat="28.4095701" lon="104.1434607"><ele>1439.83</ele><time>2026-05-01T22:53:00.000Z</time></trkpt>
        <trkpt lat="28.4095701" lon="104.1434607"><ele>1439.83</ele><time>2026-05-01T22:53:00.000Z</time></trkpt>
        <trkpt lat="28.4095835" lon="104.1435773"><ele>1449.7</ele><time>2026-05-01T22:53:09.000Z</time></trkpt>
        <trkpt lat="28.409643" lon="104.1436753"><ele>1449.3</ele><time>2026-05-01T22:53:21.000Z</time></trkpt>
        <trkpt lat="28.4098398" lon="104.143723"><ele>1446.24</ele><time>2026-05-01T22:53:51.000Z</time></trkpt>
        <trkpt lat="28.4099059" lon="104.143801"><ele>1446.24</ele><time>2026-05-01T22:53:59.000Z</time></trkpt>
        <trkpt lat="28.4098377" lon="104.1438154"><ele>1445.82</ele><time>2026-05-01T22:54:11.000Z</time></trkpt>
        <trkpt lat="28.4097966" lon="104.1438964"><ele>1448.66</ele><time>2026-05-01T22:54:39.000Z</time></trkpt>
        <trkpt lat="28.4097596" lon="104.1439966"><ele>1449.9</ele><time>2026-05-01T22:54:57.000Z</time></trkpt>
        <trkpt lat="28.4097596" lon="104.1439966"><ele>1449.9</ele><time>2026-05-01T22:54:57.000Z</time></trkpt>
        <trkpt lat="28.409681" lon="104.144094"><ele>1461.18</ele><time>2026-05-01T22:56:04.000Z</time></trkpt>
        <trkpt lat="28.409681" lon="104.144094"><ele>1461.18</ele><time>2026-05-01T22:56:52.000Z</time></trkpt>
        <trkpt lat="28.4096253" lon="104.1441194"><ele>1461.18</ele><time>2026-05-01T22:57:12.000Z</time></trkpt>
        <trkpt lat="28.4095855" lon="104.144224"><ele>1459.37</ele><time>2026-05-01T22:58:33.000Z</time></trkpt>
        <trkpt lat="28.409584" lon="104.1442389"><ele>1457.91</ele><time>2026-05-01T22:58:38.000Z</time></trkpt>
        <trkpt lat="28.409584" lon="104.1442389"><ele>1457.91</ele><time>2026-05-01T22:58:38.000Z</time></trkpt>
        <trkpt lat="28.4096691" lon="104.1440324"><ele>1450.43</ele><time>2026-05-01T22:59:10.000Z</time></trkpt>
        <trkpt lat="28.4096691" lon="104.1440324"><ele>1450.43</ele><time>2026-05-01T22:59:11.000Z</time></trkpt>
        <trkpt lat="28.4097034" lon="104.1440909"><ele>1450.43</ele><time>2026-05-01T22:59:13.000Z</time></trkpt>
        <trkpt lat="28.4097888" lon="104.1440658"><ele>1447.93</ele><time>2026-05-01T22:59:35.000Z</time></trkpt>
        <trkpt lat="28.4098852" lon="104.1440717"><ele>1452.62</ele><time>2026-05-01T23:00:03.000Z</time></trkpt>
        <trkpt lat="28.4099139" lon="104.1439937"><ele>1456.65</ele><time>2026-05-01T23:00:35.000Z</time></trkpt>
        <trkpt lat="28.4099663" lon="104.1439054"><ele>1458.71</ele><time>2026-05-01T23:00:55.000Z</time></trkpt>
        <trkpt lat="28.4100471" lon="104.1438541"><ele>1459.38</ele><time>2026-05-01T23:01:27.000Z</time></trkpt>
        <trkpt lat="28.4101387" lon="104.1438192"><ele>1459.75</ele><time>2026-05-01T23:01:45.000Z</time></trkpt>
        <trkpt lat="28.4102336" lon="104.1438181"><ele>1462.09</ele><time>2026-05-01T23:02:13.000Z</time></trkpt>
        <trkpt lat="28.4103298" lon="104.1438057"><ele>1462.1</ele><time>2026-05-01T23:02:27.000Z</time></trkpt>
        <trkpt lat="28.4104265" lon="104.1438198"><ele>1463.67</ele><time>2026-05-01T23:02:37.000Z</time></trkpt>
        <trkpt lat="28.4105162" lon="104.1438678"><ele>1464.89</ele><time>2026-05-01T23:02:49.000Z</time></trkpt>
        <trkpt lat="28.4106073" lon="104.1438816"><ele>1466.79</ele><time>2026-05-01T23:03:05.000Z</time></trkpt>
        <trkpt lat="28.4107035" lon="104.1438796"><ele>1468.47</ele><time>2026-05-01T23:03:27.000Z</time></trkpt>
        <trkpt lat="28.4107965" lon="104.1438687"><ele>1471.15</ele><time>2026-05-01T23:03:45.000Z</time></trkpt>
        <trkpt lat="28.4108813" lon="104.1438278"><ele>1473.89</ele><time>2026-05-01T23:04:11.000Z</time></trkpt>
        <trkpt lat="28.4109438" lon="104.1438874"><ele>1475.6</ele><time>2026-05-01T23:04:32.000Z</time></trkpt>
        <trkpt lat="28.4110167" lon="104.1439614"><ele>1478.87</ele><time>2026-05-01T23:04:57.000Z</time></trkpt>
        <trkpt lat="28.4111112" lon="104.143999"><ele>1480.98</ele><time>2026-05-01T23:05:09.000Z</time></trkpt>
        <trkpt lat="28.411181" lon="104.1440753"><ele>1481.88</ele><time>2026-05-01T23:05:27.000Z</time></trkpt>
        <trkpt lat="28.4112476" lon="104.1441651"><ele>1483.7</ele><time>2026-05-01T23:05:45.000Z</time></trkpt>
        <trkpt lat="28.4113316" lon="104.1442289"><ele>1486.12</ele><time>2026-05-01T23:06:01.000Z</time></trkpt>
        <trkpt lat="28.411416" lon="104.1441966"><ele>1487.95</ele><time>2026-05-01T23:06:29.000Z</time></trkpt>
        <trkpt lat="28.4114743" lon="104.1441108"><ele>1489.27</ele><time>2026-05-01T23:07:03.000Z</time></trkpt>
        <trkpt lat="28.4115341" lon="104.1440222"><ele>1491.4</ele><time>2026-05-01T23:07:51.000Z</time></trkpt>
        <trkpt lat="28.4116076" lon="104.1439577"><ele>1494.16</ele><time>2026-05-01T23:08:21.000Z</time></trkpt>
        <trkpt lat="28.4116989" lon="104.1439746"><ele>1496.34</ele><time>2026-05-01T23:08:39.000Z</time></trkpt>
        <trkpt lat="28.4117883" lon="104.144019"><ele>1497.91</ele><time>2026-05-01T23:08:52.000Z</time></trkpt>
        <trkpt lat="28.4118892" lon="104.1440346"><ele>1497.47</ele><time>2026-05-01T23:09:07.000Z</time></trkpt>
        <trkpt lat="28.4119832" lon="104.1440228"><ele>1499.17</ele><time>2026-05-01T23:09:41.000Z</time></trkpt>
        <trkpt lat="28.4120776" lon="104.1440312"><ele>1502.47</ele><time>2026-05-01T23:10:03.000Z</time></trkpt>
        <trkpt lat="28.412159" lon="104.1440803"><ele>1504.98</ele><time>2026-05-01T23:10:21.000Z</time></trkpt>
        <trkpt lat="28.4122527" lon="104.1440895"><ele>1506.28</ele><time>2026-05-01T23:10:33.000Z</time></trkpt>
        <trkpt lat="28.4123484" lon="104.1440851"><ele>1507.28</ele><time>2026-05-01T23:10:45.000Z</time></trkpt>
        <trkpt lat="28.4124406" lon="104.1440728"><ele>1507.36</ele><time>2026-05-01T23:10:57.000Z</time></trkpt>
        <trkpt lat="28.4124709" lon="104.1440515"><ele>1508.35</ele><time>2026-05-01T23:11:05.000Z</time></trkpt>
        <trkpt lat="28.4125415" lon="104.1440391"><ele>1510.03</ele><time>2026-05-01T23:11:21.000Z</time></trkpt>
        <trkpt lat="28.4126292" lon="104.144052"><ele>1511.5</ele><time>2026-05-01T23:11:49.000Z</time></trkpt>
        <trkpt lat="28.4127259" lon="104.1440736"><ele>1514</ele><time>2026-05-01T23:13:21.000Z</time></trkpt>
        <trkpt lat="28.4128185" lon="104.1440711"><ele>1519.09</ele><time>2026-05-01T23:13:55.000Z</time></trkpt>
        <trkpt lat="28.4129146" lon="104.1440499"><ele>1522.7</ele><time>2026-05-01T23:14:15.000Z</time></trkpt>
        <trkpt lat="28.4129994" lon="104.144"><ele>1525.47</ele><time>2026-05-01T23:14:29.000Z</time></trkpt>
        <trkpt lat="28.4130438" lon="104.1439066"><ele>1527.49</ele><time>2026-05-01T23:14:45.000Z</time></trkpt>
        <trkpt lat="28.4130769" lon="104.1437979"><ele>1529.99</ele><time>2026-05-01T23:15:26.000Z</time></trkpt>
        <trkpt lat="28.4131132" lon="104.1436832"><ele>1530.22</ele><time>2026-05-01T23:15:37.000Z</time></trkpt>
        <trkpt lat="28.4131631" lon="104.1435778"><ele>1529.96</ele><time>2026-05-01T23:15:49.000Z</time></trkpt>
        <trkpt lat="28.4132037" lon="104.1434718"><ele>1529.74</ele><time>2026-05-01T23:16:01.000Z</time></trkpt>
        <trkpt lat="28.4132341" lon="104.1433701"><ele>1529.3</ele><time>2026-05-01T23:16:17.000Z</time></trkpt>
        <trkpt lat="28.4132122" lon="104.1432682"><ele>1528.6</ele><time>2026-05-01T23:16:33.000Z</time></trkpt>
        <trkpt lat="28.4132057" lon="104.1431604"><ele>1529.25</ele><time>2026-05-01T23:16:45.000Z</time></trkpt>
        <trkpt lat="28.4132153" lon="104.1430517"><ele>1528.81</ele><time>2026-05-01T23:17:01.000Z</time></trkpt>
        <trkpt lat="28.4132153" lon="104.1430517"><ele>1528.81</ele><time>2026-05-01T23:17:01.000Z</time></trkpt>
        <trkpt lat="28.4133061" lon="104.1430184"><ele>1518.56</ele><time>2026-05-01T23:18:27.000Z</time></trkpt>
        <trkpt lat="28.4133813" lon="104.1429562"><ele>1517.07</ele><time>2026-05-01T23:18:45.000Z</time></trkpt>
        <trkpt lat="28.4134735" lon="104.1429132"><ele>1512.85</ele><time>2026-05-01T23:19:11.000Z</time></trkpt>
        <trkpt lat="28.4135052" lon="104.1428243"><ele>1515.59</ele><time>2026-05-01T23:19:25.000Z</time></trkpt>
        <trkpt lat="28.4135132" lon="104.1427063"><ele>1518.17</ele><time>2026-05-01T23:20:21.000Z</time></trkpt>
        <trkpt lat="28.4136041" lon="104.1426941"><ele>1511.34</ele><time>2026-05-01T23:20:53.000Z</time></trkpt>
        <trkpt lat="28.4136269" lon="104.1425806"><ele>1509.5</ele><time>2026-05-01T23:21:15.000Z</time></trkpt>
        <trkpt lat="28.4136407" lon="104.1425643"><ele>1508.92</ele><time>2026-05-01T23:21:17.000Z</time></trkpt>
        <trkpt lat="28.4136621" lon="104.1424613"><ele>1511.47</ele><time>2026-05-01T23:22:05.000Z</time></trkpt>
        <trkpt lat="28.4136616" lon="104.1423591"><ele>1510.93</ele><time>2026-05-01T23:23:07.000Z</time></trkpt>
        <trkpt lat="28.4136576" lon="104.1422532"><ele>1511.48</ele><time>2026-05-01T23:23:25.000Z</time></trkpt>
        <trkpt lat="28.4136473" lon="104.1421446"><ele>1510.45</ele><time>2026-05-01T23:23:41.000Z</time></trkpt>
        <trkpt lat="28.4136532" lon="104.1420386"><ele>1506.22</ele><time>2026-05-01T23:23:55.000Z</time></trkpt>
        <trkpt lat="28.4137142" lon="104.1419482"><ele>1506.54</ele><time>2026-05-01T23:24:09.000Z</time></trkpt>
        <trkpt lat="28.4138149" lon="104.1419477"><ele>1504.34</ele><time>2026-05-01T23:24:23.000Z</time></trkpt>
        <trkpt lat="28.4139233" lon="104.1419099"><ele>1502.02</ele><time>2026-05-01T23:25:01.000Z</time></trkpt>
        <trkpt lat="28.4140012" lon="104.1418315"><ele>1498.35</ele><time>2026-05-01T23:25:11.000Z</time></trkpt>
        <trkpt lat="28.4140945" lon="104.1418035"><ele>1501.42</ele><time>2026-05-01T23:25:21.000Z</time></trkpt>
        <trkpt lat="28.4142026" lon="104.1418133"><ele>1501.58</ele><time>2026-05-01T23:25:31.000Z</time></trkpt>
        <trkpt lat="28.4142784" lon="104.1417583"><ele>1501.55</ele><time>2026-05-01T23:25:42.000Z</time></trkpt>
        <trkpt lat="28.4143176" lon="104.1416458"><ele>1499.64</ele><time>2026-05-01T23:25:56.000Z</time></trkpt>
        <trkpt lat="28.4143417" lon="104.1415316"><ele>1502.44</ele><time>2026-05-01T23:26:08.000Z</time></trkpt>
        <trkpt lat="28.4142883" lon="104.1413346"><ele>1503.07</ele><time>2026-05-01T23:26:36.000Z</time></trkpt>
        <trkpt lat="28.4142666" lon="104.1412487"><ele>1503.07</ele><time>2026-05-01T23:27:00.000Z</time></trkpt>
        <trkpt lat="28.4143371" lon="104.1412037"><ele>1501.33</ele><time>2026-05-01T23:27:16.000Z</time></trkpt>
        <trkpt lat="28.4144258" lon="104.1411725"><ele>1499.55</ele><time>2026-05-01T23:27:32.000Z</time></trkpt>
        <trkpt lat="28.4143765" lon="104.1412615"><ele>1498.9</ele><time>2026-05-01T23:32:12.000Z</time></trkpt>
        <trkpt lat="28.4143115" lon="104.1413404"><ele>1499.61</ele><time>2026-05-01T23:32:26.000Z</time></trkpt>
        <trkpt lat="28.4142272" lon="104.1413301"><ele>1500.58</ele><time>2026-05-01T23:32:50.000Z</time></trkpt>
        <trkpt lat="28.4142041" lon="104.1412329"><ele>1499.82</ele><time>2026-05-01T23:33:00.000Z</time></trkpt>
        <trkpt lat="28.4141831" lon="104.1411052"><ele>1500.69</ele><time>2026-05-01T23:33:10.000Z</time></trkpt>
        <trkpt lat="28.4141678" lon="104.1410279"><ele>1502.14</ele><time>2026-05-01T23:33:16.000Z</time></trkpt>
        <trkpt lat="28.4141385" lon="104.1409383"><ele>1501.88</ele><time>2026-05-01T23:33:28.000Z</time></trkpt>
        <trkpt lat="28.4141479" lon="104.1408317"><ele>1501.85</ele><time>2026-05-01T23:33:46.000Z</time></trkpt>
        <trkpt lat="28.4141143" lon="104.1407328"><ele>1501.49</ele><time>2026-05-01T23:33:58.000Z</time></trkpt>
        <trkpt lat="28.4140975" lon="104.1406257"><ele>1501.6</ele><time>2026-05-01T23:34:10.000Z</time></trkpt>
        <trkpt lat="28.4140975" lon="104.1406257"><ele>1501.6</ele><time>2026-05-01T23:34:10.000Z</time></trkpt>
        <trkpt lat="28.4142878" lon="104.140116"><ele>1455.76</ele><time>2026-05-01T23:35:52.000Z</time></trkpt>
        <trkpt lat="28.4142878" lon="104.140116"><ele>1455.76</ele><time>2026-05-01T23:35:53.000Z</time></trkpt>
        <trkpt lat="28.4142207" lon="104.1399697"><ele>1455.76</ele><time>2026-05-01T23:35:55.000Z</time></trkpt>
        <trkpt lat="28.4142955" lon="104.1399596"><ele>1472.65</ele><time>2026-05-01T23:36:19.000Z</time></trkpt>
        <trkpt lat="28.4143393" lon="104.139882"><ele>1483.61</ele><time>2026-05-01T23:36:37.000Z</time></trkpt>
        <trkpt lat="28.4143393" lon="104.139882"><ele>1483.61</ele><time>2026-05-01T23:36:37.000Z</time></trkpt>
        <trkpt lat="28.4144389" lon="104.1398063"><ele>1497.15</ele><time>2026-05-01T23:36:51.000Z</time></trkpt>
        <trkpt lat="28.4144259" lon="104.1397039"><ele>1495.35</ele><time>2026-05-01T23:37:09.000Z</time></trkpt>
        <trkpt lat="28.4144556" lon="104.139605"><ele>1495.35</ele><time>2026-05-01T23:37:21.000Z</time></trkpt>
        <trkpt lat="28.4144556" lon="104.139605"><ele>1495.35</ele><time>2026-05-01T23:37:21.000Z</time></trkpt>
        <trkpt lat="28.4144624" lon="104.1394938"><ele>1496.08</ele><time>2026-05-01T23:37:50.000Z</time></trkpt>
        <trkpt lat="28.4145361" lon="104.1394305"><ele>1492.69</ele><time>2026-05-01T23:38:06.000Z</time></trkpt>
        <trkpt lat="28.4145581" lon="104.1393209"><ele>1492.69</ele><time>2026-05-01T23:38:20.000Z</time></trkpt>
        <trkpt lat="28.4146128" lon="104.1392204"><ele>1493.29</ele><time>2026-05-01T23:38:34.000Z</time></trkpt>
        <trkpt lat="28.4146128" lon="104.1392204"><ele>1493.29</ele><time>2026-05-01T23:38:34.000Z</time></trkpt>
        <trkpt lat="28.4146769" lon="104.1391374"><ele>1488.69</ele><time>2026-05-01T23:38:50.000Z</time></trkpt>
        <trkpt lat="28.4146769" lon="104.1391374"><ele>1488.69</ele><time>2026-05-01T23:38:52.000Z</time></trkpt>
        <trkpt lat="28.4146769" lon="104.1391374"><ele>1488.69</ele><time>2026-05-01T23:38:52.000Z</time></trkpt>
        <trkpt lat="28.414825" lon="104.138972"><ele>1480.79</ele><time>2026-05-01T23:40:04.000Z</time></trkpt>
        <trkpt lat="28.414825" lon="104.138972"><ele>1480.79</ele><time>2026-05-01T23:40:04.000Z</time></trkpt>
        <trkpt lat="28.4148395" lon="104.1388708"><ele>1480.79</ele><time>2026-05-01T23:40:34.000Z</time></trkpt>
        <trkpt lat="28.4148665" lon="104.1387674"><ele>1480.14</ele><time>2026-05-01T23:41:04.000Z</time></trkpt>
        <trkpt lat="28.4149471" lon="104.1386941"><ele>1479.36</ele><time>2026-05-01T23:41:24.000Z</time></trkpt>
        <trkpt lat="28.4149933" lon="104.1386011"><ele>1476.38</ele><time>2026-05-01T23:41:38.000Z</time></trkpt>
        <trkpt lat="28.4150374" lon="104.1385003"><ele>1476.25</ele><time>2026-05-01T23:42:04.000Z</time></trkpt>
        <trkpt lat="28.4150599" lon="104.138398"><ele>1476.25</ele><time>2026-05-01T23:42:32.000Z</time></trkpt>
        <trkpt lat="28.4151209" lon="104.1383164"><ele>1476.52</ele><time>2026-05-01T23:42:48.000Z</time></trkpt>
        <trkpt lat="28.4151209" lon="104.1383164"><ele>1476.52</ele><time>2026-05-01T23:42:48.000Z</time></trkpt>
        <trkpt lat="28.4152807" lon="104.1381474"><ele>1482.44</ele><time>2026-05-01T23:43:39.000Z</time></trkpt>
        <trkpt lat="28.4152894" lon="104.1380901"><ele>1472.44</ele><time>2026-05-01T23:43:41.000Z</time></trkpt>
        <trkpt lat="28.4152894" lon="104.1380901"><ele>1472.44</ele><time>2026-05-01T23:43:41.000Z</time></trkpt>
        <trkpt lat="28.4153398" lon="104.1380972"><ele>1459.79</ele><time>2026-05-01T23:44:16.000Z</time></trkpt>
        <trkpt lat="28.4154596" lon="104.1380114"><ele>1462.81</ele><time>2026-05-01T23:44:18.000Z</time></trkpt>
        <trkpt lat="28.4155152" lon="104.1379216"><ele>1462.81</ele><time>2026-05-01T23:44:42.000Z</time></trkpt>
        <trkpt lat="28.4155152" lon="104.1379216"><ele>1462.81</ele><time>2026-05-01T23:44:42.000Z</time></trkpt>
        <trkpt lat="28.4154875" lon="104.1378867"><ele>1465.66</ele><time>2026-05-01T23:45:29.000Z</time></trkpt>
        <trkpt lat="28.4154875" lon="104.1378867"><ele>1465.66</ele><time>2026-05-01T23:45:32.000Z</time></trkpt>
        <trkpt lat="28.41549" lon="104.1378828"><ele>1465.66</ele><time>2026-05-01T23:45:34.000Z</time></trkpt>
        <trkpt lat="28.4155468" lon="104.137824"><ele>1465.55</ele><time>2026-05-01T23:45:36.000Z</time></trkpt>
        <trkpt lat="28.4156429" lon="104.1377799"><ele>1466.65</ele><time>2026-05-01T23:45:42.000Z</time></trkpt>
        <trkpt lat="28.4156429" lon="104.1377799"><ele>1466.65</ele><time>2026-05-01T23:45:42.000Z</time></trkpt>
        <trkpt lat="28.415765" lon="104.1377502"><ele>1454.26</ele><time>2026-05-01T23:47:30.000Z</time></trkpt>
        <trkpt lat="28.415765" lon="104.1377502"><ele>1454.26</ele><time>2026-05-01T23:47:34.000Z</time></trkpt>
        <trkpt lat="28.4158349" lon="104.1376852"><ele>1454.26</ele><time>2026-05-01T23:48:07.000Z</time></trkpt>
        <trkpt lat="28.4158349" lon="104.1376852"><ele>1454.26</ele><time>2026-05-01T23:48:07.000Z</time></trkpt>
        <trkpt lat="28.4158391" lon="104.1375791"><ele>1452.01</ele><time>2026-05-01T23:48:46.000Z</time></trkpt>
        <trkpt lat="28.4158391" lon="104.1375791"><ele>1452.01</ele><time>2026-05-01T23:48:59.000Z</time></trkpt>
        <trkpt lat="28.4158204" lon="104.1374788"><ele>1452.01</ele><time>2026-05-01T23:49:45.000Z</time></trkpt>
        <trkpt lat="28.4158042" lon="104.1373759"><ele>1450.47</ele><time>2026-05-01T23:49:59.000Z</time></trkpt>
        <trkpt lat="28.4158047" lon="104.1372663"><ele>1450.62</ele><time>2026-05-01T23:50:11.000Z</time></trkpt>
        <trkpt lat="28.4158512" lon="104.1371749"><ele>1451.59</ele><time>2026-05-01T23:50:49.000Z</time></trkpt>
        <trkpt lat="28.415905" lon="104.1370822"><ele>1451.52</ele><time>2026-05-01T23:51:07.000Z</time></trkpt>
        <trkpt lat="28.415905" lon="104.1370822"><ele>1451.52</ele><time>2026-05-01T23:51:07.000Z</time></trkpt>
        <trkpt lat="28.4159149" lon="104.1370336"><ele>1441.71</ele><time>2026-05-01T23:54:48.000Z</time></trkpt>
        <trkpt lat="28.4159149" lon="104.1370336"><ele>1441.71</ele><time>2026-05-01T23:54:50.000Z</time></trkpt>
        <trkpt lat="28.4159507" lon="104.1370898"><ele>1441.71</ele><time>2026-05-01T23:54:52.000Z</time></trkpt>
        <trkpt lat="28.4159447" lon="104.1369822"><ele>1443.41</ele><time>2026-05-01T23:55:58.000Z</time></trkpt>
        <trkpt lat="28.4159139" lon="104.1368821"><ele>1440.88</ele><time>2026-05-01T23:56:42.000Z</time></trkpt>
        <trkpt lat="28.4159139" lon="104.1368821"><ele>1440.88</ele><time>2026-05-01T23:56:42.000Z</time></trkpt>
        <trkpt lat="28.4159075" lon="104.1369888"><ele>1438.07</ele><time>2026-05-01T23:57:27.000Z</time></trkpt>
        <trkpt lat="28.4159075" lon="104.1369888"><ele>1438.07</ele><time>2026-05-01T23:57:28.000Z</time></trkpt>
        <trkpt lat="28.4159934" lon="104.1370296"><ele>1438.07</ele><time>2026-05-01T23:59:00.000Z</time></trkpt>
        <trkpt lat="28.4160778" lon="104.1370714"><ele>1436.96</ele><time>2026-05-02T00:00:02.000Z</time></trkpt>
        <trkpt lat="28.4161688" lon="104.1370743"><ele>1436.59</ele><time>2026-05-02T00:00:10.000Z</time></trkpt>
        <trkpt lat="28.416269" lon="104.1371077"><ele>1436.27</ele><time>2026-05-02T00:00:18.000Z</time></trkpt>
        <trkpt lat="28.4162925" lon="104.137118"><ele>1436.38</ele><time>2026-05-02T00:00:20.000Z</time></trkpt>
        <trkpt lat="28.4164344" lon="104.1368799"><ele>1436.41</ele><time>2026-05-02T00:00:50.000Z</time></trkpt>
        <trkpt lat="28.4165018" lon="104.1367138"><ele>1436.88</ele><time>2026-05-02T00:00:54.000Z</time></trkpt>
        <trkpt lat="28.4165284" lon="104.1365874"><ele>1436.5</ele><time>2026-05-02T00:00:58.000Z</time></trkpt>
        <trkpt lat="28.4165492" lon="104.1364449"><ele>1436.98</ele><time>2026-05-02T00:01:04.000Z</time></trkpt>
        <trkpt lat="28.4165648" lon="104.1363304"><ele>1436.97</ele><time>2026-05-02T00:01:08.000Z</time></trkpt>
        <trkpt lat="28.4165806" lon="104.1362269"><ele>1437.42</ele><time>2026-05-02T00:01:12.000Z</time></trkpt>
        <trkpt lat="28.4165967" lon="104.1361281"><ele>1437.44</ele><time>2026-05-02T00:01:16.000Z</time></trkpt>
        <trkpt lat="28.4166142" lon="104.136021"><ele>1437.62</ele><time>2026-05-02T00:01:20.000Z</time></trkpt>
        <trkpt lat="28.4166385" lon="104.1359124"><ele>1437.67</ele><time>2026-05-02T00:01:24.000Z</time></trkpt>
        <trkpt lat="28.4166592" lon="104.1358062"><ele>1438.14</ele><time>2026-05-02T00:01:28.000Z</time></trkpt>
        <trkpt lat="28.41668" lon="104.1356723"><ele>1437.9</ele><time>2026-05-02T00:01:34.000Z</time></trkpt>
        <trkpt lat="28.4166952" lon="104.1355529"><ele>1437.41</ele><time>2026-05-02T00:01:38.000Z</time></trkpt>
        <trkpt lat="28.4167107" lon="104.1354273"><ele>1438.27</ele><time>2026-05-02T00:01:42.000Z</time></trkpt>
        <trkpt lat="28.4167289" lon="104.1353093"><ele>1439.07</ele><time>2026-05-02T00:01:46.000Z</time></trkpt>
        <trkpt lat="28.4167411" lon="104.1351665"><ele>1439.8</ele><time>2026-05-02T00:01:52.000Z</time></trkpt>
        <trkpt lat="28.4167473" lon="104.1350465"><ele>1438.44</ele><time>2026-05-02T00:01:56.000Z</time></trkpt>
        <trkpt lat="28.4167514" lon="104.1349391"><ele>1437.92</ele><time>2026-05-02T00:02:00.000Z</time></trkpt>
        <trkpt lat="28.4167501" lon="104.1348371"><ele>1437.87</ele><time>2026-05-02T00:02:04.000Z</time></trkpt>
        <trkpt lat="28.4167436" lon="104.1347324"><ele>1437.74</ele><time>2026-05-02T00:02:08.000Z</time></trkpt>
        <trkpt lat="28.4167342" lon="104.134625"><ele>1437.72</ele><time>2026-05-02T00:02:12.000Z</time></trkpt>
        <trkpt lat="28.4167221" lon="104.1345191"><ele>1437.74</ele><time>2026-05-02T00:02:16.000Z</time></trkpt>
        <trkpt lat="28.4167086" lon="104.1344149"><ele>1438.12</ele><time>2026-05-02T00:02:20.000Z</time></trkpt>
        <trkpt lat="28.4166897" lon="104.1343133"><ele>1438.75</ele><time>2026-05-02T00:02:24.000Z</time></trkpt>
        <trkpt lat="28.4166679" lon="104.1342127"><ele>1439.01</ele><time>2026-05-02T00:02:28.000Z</time></trkpt>
        <trkpt lat="28.4166416" lon="104.1341128"><ele>1438.86</ele><time>2026-05-02T00:02:32.000Z</time></trkpt>
        <trkpt lat="28.4166034" lon="104.1339795"><ele>1438.53</ele><time>2026-05-02T00:02:38.000Z</time></trkpt>
        <trkpt lat="28.4165772" lon="104.1338654"><ele>1438.5</ele><time>2026-05-02T00:02:42.000Z</time></trkpt>
        <trkpt lat="28.416558" lon="104.1337298"><ele>1438.5</ele><time>2026-05-02T00:02:48.000Z</time></trkpt>
        <trkpt lat="28.416558" lon="104.1337298"><ele>1438.5</ele><time>2026-05-02T00:02:48.000Z</time></trkpt>
        <trkpt lat="28.4165674" lon="104.1335904"><ele>1438.44</ele><time>2026-05-02T00:02:54.000Z</time></trkpt>
        <trkpt lat="28.4166126" lon="104.1334874"><ele>1440.39</ele><time>2026-05-02T00:03:00.000Z</time></trkpt>
        <trkpt lat="28.4166552" lon="104.1333868"><ele>1440.45</ele><time>2026-05-02T00:03:06.000Z</time></trkpt>
        <trkpt lat="28.416726" lon="104.1330588"><ele>1440.51</ele><time>2026-05-02T00:03:32.000Z</time></trkpt>
        <trkpt lat="28.4167515" lon="104.1329566"><ele>1440.51</ele><time>2026-05-02T00:03:56.000Z</time></trkpt>
        <trkpt lat="28.4168219" lon="104.1328784"><ele>1440.41</ele><time>2026-05-02T00:06:42.000Z</time></trkpt>
        <trkpt lat="28.4168406" lon="104.1327687"><ele>1440.52</ele><time>2026-05-02T00:07:04.000Z</time></trkpt>
        <trkpt lat="28.4168" lon="104.1326668"><ele>1440.45</ele><time>2026-05-02T00:07:16.000Z</time></trkpt>
        <trkpt lat="28.4167724" lon="104.1325667"><ele>1440.3</ele><time>2026-05-02T00:07:26.000Z</time></trkpt>
        <trkpt lat="28.4168197" lon="104.1324934"><ele>1440.88</ele><time>2026-05-02T00:07:36.000Z</time></trkpt>
        <trkpt lat="28.4168948" lon="104.1324311"><ele>1440.64</ele><time>2026-05-02T00:07:52.000Z</time></trkpt>
        <trkpt lat="28.41699" lon="104.1323791"><ele>1441.91</ele><time>2026-05-02T00:08:06.000Z</time></trkpt>
        <trkpt lat="28.4170958" lon="104.1323421"><ele>1441.86</ele><time>2026-05-02T00:08:18.000Z</time></trkpt>
        <trkpt lat="28.4171689" lon="104.1322726"><ele>1441.5</ele><time>2026-05-02T00:08:32.000Z</time></trkpt>
        <trkpt lat="28.4171473" lon="104.1323267"><ele>1441.94</ele><time>2026-05-02T00:08:50.000Z</time></trkpt>
        <trkpt lat="28.4171005" lon="104.1324299"><ele>1444.32</ele><time>2026-05-02T00:09:00.000Z</time></trkpt>
        <trkpt lat="28.417075" lon="104.1325582"><ele>1444.72</ele><time>2026-05-02T00:09:10.000Z</time></trkpt>
        <trkpt lat="28.4170899" lon="104.1326771"><ele>1444.03</ele><time>2026-05-02T00:09:18.000Z</time></trkpt>
        <trkpt lat="28.4171498" lon="104.1327709"><ele>1442.97</ele><time>2026-05-02T00:09:28.000Z</time></trkpt>
        <trkpt lat="28.4171305" lon="104.1327151"><ele>1442.86</ele><time>2026-05-02T00:09:48.000Z</time></trkpt>
        <trkpt lat="28.4171081" lon="104.1326073"><ele>1443.72</ele><time>2026-05-02T00:09:56.000Z</time></trkpt>
        <trkpt lat="28.4170792" lon="104.1324807"><ele>1443.69</ele><time>2026-05-02T00:10:04.000Z</time></trkpt>
        <trkpt lat="28.417054" lon="104.1323548"><ele>1442.81</ele><time>2026-05-02T00:10:12.000Z</time></trkpt>
        <trkpt lat="28.416992" lon="104.1322606"><ele>1442.25</ele><time>2026-05-02T00:10:20.000Z</time></trkpt>
        <trkpt lat="28.4168963" lon="104.1321901"><ele>1443.56</ele><time>2026-05-02T00:10:28.000Z</time></trkpt>
        <trkpt lat="28.4167944" lon="104.1321292"><ele>1445.1</ele><time>2026-05-02T00:10:36.000Z</time></trkpt>
        <trkpt lat="28.4167002" lon="104.1320624"><ele>1446.12</ele><time>2026-05-02T00:10:44.000Z</time></trkpt>
        <trkpt lat="28.4166085" lon="104.1320039"><ele>1446.29</ele><time>2026-05-02T00:10:52.000Z</time></trkpt>
        <trkpt lat="28.4165093" lon="104.1319722"><ele>1446.18</ele><time>2026-05-02T00:11:00.000Z</time></trkpt>
        <trkpt lat="28.4164055" lon="104.1319626"><ele>1445.26</ele><time>2026-05-02T00:11:08.000Z</time></trkpt>
        <trkpt lat="28.4163037" lon="104.1319721"><ele>1444.53</ele><time>2026-05-02T00:11:16.000Z</time></trkpt>
        <trkpt lat="28.4162027" lon="104.131989"><ele>1444.02</ele><time>2026-05-02T00:11:24.000Z</time></trkpt>
        <trkpt lat="28.4161033" lon="104.1319953"><ele>1443.57</ele><time>2026-05-02T00:11:32.000Z</time></trkpt>
        <trkpt lat="28.4160509" lon="104.1319613"><ele>1443.92</ele><time>2026-05-02T00:11:38.000Z</time></trkpt>
        <trkpt lat="28.4161167" lon="104.1319574"><ele>1444.97</ele><time>2026-05-02T00:11:50.000Z</time></trkpt>
        <trkpt lat="28.416227" lon="104.131945"><ele>1442.04</ele><time>2026-05-02T00:11:58.000Z</time></trkpt>
        <trkpt lat="28.4163468" lon="104.1319375"><ele>1440.05</ele><time>2026-05-02T00:12:06.000Z</time></trkpt>
        <trkpt lat="28.4164621" lon="104.131937"><ele>1438.02</ele><time>2026-05-02T00:12:14.000Z</time></trkpt>
        <trkpt lat="28.4165627" lon="104.1319576"><ele>1436.65</ele><time>2026-05-02T00:12:22.000Z</time></trkpt>
        <trkpt lat="28.4166473" lon="104.1319323"><ele>1436.16</ele><time>2026-05-02T00:12:34.000Z</time></trkpt>
        <trkpt lat="28.4167224" lon="104.1319693"><ele>1437.38</ele><time>2026-05-02T00:12:48.000Z</time></trkpt>
        <trkpt lat="28.416746" lon="104.1319004"><ele>1437.86</ele><time>2026-05-02T00:13:02.000Z</time></trkpt>
        <trkpt lat="28.4167341" lon="104.1319633"><ele>1438.54</ele><time>2026-05-02T00:13:12.000Z</time></trkpt>
        <trkpt lat="28.4166547" lon="104.1319936"><ele>1438.74</ele><time>2026-05-02T00:13:24.000Z</time></trkpt>
        <trkpt lat="28.4166466" lon="104.1319204"><ele>1439.63</ele><time>2026-05-02T00:13:34.000Z</time></trkpt>
        <trkpt lat="28.416653" lon="104.1318044"><ele>1439.8</ele><time>2026-05-02T00:13:46.000Z</time></trkpt>
        <trkpt lat="28.4166725" lon="104.1316784"><ele>1440.87</ele><time>2026-05-02T00:14:02.000Z</time></trkpt>
        <trkpt lat="28.41661" lon="104.1316411"><ele>1440.79</ele><time>2026-05-02T00:14:12.000Z</time></trkpt>
        <trkpt lat="28.4165684" lon="104.131561"><ele>1440.57</ele><time>2026-05-02T00:14:28.000Z</time></trkpt>
        <trkpt lat="28.4165038" lon="104.1314738"><ele>1440.63</ele><time>2026-05-02T00:14:42.000Z</time></trkpt>
        <trkpt lat="28.4164498" lon="104.1313801"><ele>1442.93</ele><time>2026-05-02T00:14:58.000Z</time></trkpt>
        <trkpt lat="28.4164805" lon="104.1314388"><ele>1441.82</ele><time>2026-05-02T00:15:54.000Z</time></trkpt>
        <trkpt lat="28.4165241" lon="104.1315528"><ele>1439.98</ele><time>2026-05-02T00:16:14.000Z</time></trkpt>
        <trkpt lat="28.4165825" lon="104.1316576"><ele>1438</ele><time>2026-05-02T00:16:26.000Z</time></trkpt>
        <trkpt lat="28.4166503" lon="104.1317464"><ele>1436.12</ele><time>2026-05-02T00:16:46.000Z</time></trkpt>
        <trkpt lat="28.4166835" lon="104.1318512"><ele>1435.08</ele><time>2026-05-02T00:16:58.000Z</time></trkpt>
        <trkpt lat="28.4166689" lon="104.1319563"><ele>1436.57</ele><time>2026-05-02T00:17:16.000Z</time></trkpt>
        <trkpt lat="28.4166793" lon="104.1320668"><ele>1438.24</ele><time>2026-05-02T00:17:30.000Z</time></trkpt>
        <trkpt lat="28.4167292" lon="104.1321057"><ele>1440.66</ele><time>2026-05-02T00:17:40.000Z</time></trkpt>
        <trkpt lat="28.4166823" lon="104.1320726"><ele>1441.18</ele><time>2026-05-02T00:17:54.000Z</time></trkpt>
        <trkpt lat="28.4166052" lon="104.1320082"><ele>1441.88</ele><time>2026-05-02T00:18:16.000Z</time></trkpt>
        <trkpt lat="28.4164906" lon="104.1319608"><ele>1443.27</ele><time>2026-05-02T00:26:25.000Z</time></trkpt>
        <trkpt lat="28.4164477" lon="104.1318631"><ele>1443.34</ele><time>2026-05-02T00:26:45.000Z</time></trkpt>
        <trkpt lat="28.4164443" lon="104.1318595"><ele>1442.73</ele><time>2026-05-02T00:26:49.000Z</time></trkpt>
        <trkpt lat="28.416498" lon="104.131937"><ele>1442.57</ele><time>2026-05-02T00:27:29.000Z</time></trkpt>
        <trkpt lat="28.4165901" lon="104.132008"><ele>1442.34</ele><time>2026-05-02T00:27:39.000Z</time></trkpt>
        <trkpt lat="28.4166677" lon="104.1320909"><ele>1441.85</ele><time>2026-05-02T00:28:01.000Z</time></trkpt>
        <trkpt lat="28.4167688" lon="104.1321511"><ele>1441.82</ele><time>2026-05-02T00:28:13.000Z</time></trkpt>
        <trkpt lat="28.4168639" lon="104.1322097"><ele>1441.55</ele><time>2026-05-02T00:28:25.000Z</time></trkpt>
        <trkpt lat="28.4169496" lon="104.1322612"><ele>1441.75</ele><time>2026-05-02T00:28:35.000Z</time></trkpt>
        <trkpt lat="28.417036" lon="104.1323255"><ele>1441.47</ele><time>2026-05-02T00:28:45.000Z</time></trkpt>
        <trkpt lat="28.4171314" lon="104.13235"><ele>1441.53</ele><time>2026-05-02T00:28:55.000Z</time></trkpt>
        <trkpt lat="28.4172104" lon="104.1322816"><ele>1440.47</ele><time>2026-05-02T00:29:05.000Z</time></trkpt>
        <trkpt lat="28.4172633" lon="104.1321842"><ele>1440.57</ele><time>2026-05-02T00:29:15.000Z</time></trkpt>
        <trkpt lat="28.4172946" lon="104.1321078"><ele>1440.64</ele><time>2026-05-02T00:29:25.000Z</time></trkpt>
        <trkpt lat="28.4173069" lon="104.1319781"><ele>1441.32</ele><time>2026-05-02T00:30:19.000Z</time></trkpt>
        <trkpt lat="28.4173069" lon="104.1319781"><ele>1441.32</ele><time>2026-05-02T00:30:34.000Z</time></trkpt>
      </trkseg>
  </trk>
</gpx>